BAW208 KMIA-EGLL
Flight info
| Callsign | BAW208 |
|---|---|
| Flight time | 7h 40m |
| Altitude | 37000 |
| Route | FOLZZ3 SUMRS/M084F370 M204 SOORY DCT 42N050W 44N040W/M084F390 46N030W 48N020W 48N015W DCT OMOKO DCT GUNSO DCT GAPLI/N0485F390 DCT SIDDI DCT DAWLY DCT ELRIP DCT OTMET |
| Aircraft | A35K/H-SDE2E3GHIJ1J3J4J5LM1ORWXY/LB1D1 |
Departure
| Time | 2026-05-04 19:14 |
|---|---|
| Airport | Miami International Airport (KMIA) |
Arrival
| Time | 2026-05-05 02:54 |
|---|---|
| Airport | London Heathrow Airport (EGLL) |
| Time | Latitude | Longitude | Altitude | Speed | Heading |
|---|---|---|---|---|---|
| 2026-05-04 18:23 | 25.79421 | -80.28370 | 26 ft | 0 kts | 12° |
| 2026-05-04 18:31 | 25.79420 | -80.28370 | 26 ft | 0 kts | 12° |
| 2026-05-04 18:57 | 25.79419 | -80.28370 | 26 ft | 1 kts | 12° |
| 2026-05-04 18:57 | 25.79395 | -80.28376 | 31 ft | 4 kts | 12° |
| 2026-05-04 18:57 | 25.79373 | -80.28381 | 28 ft | 3 kts | 11° |
| 2026-05-04 18:57 | 25.79348 | -80.28381 | 25 ft | 4 kts | 332° |
| 2026-05-04 18:58 | 25.79334 | -80.28362 | 25 ft | 4 kts | 275° |
| 2026-05-04 18:58 | 25.79335 | -80.28333 | 28 ft | 4 kts | 266° |
| 2026-05-04 18:58 | 25.79336 | -80.28311 | 25 ft | 0 kts | 266° |
| 2026-05-04 19:02 | 25.79336 | -80.28313 | 25 ft | 1 kts | 266° |
| 2026-05-04 19:02 | 25.79335 | -80.28333 | 25 ft | 4 kts | 266° |
| 2026-05-04 19:02 | 25.79332 | -80.28373 | 27 ft | 7 kts | 266° |
| 2026-05-04 19:03 | 25.79328 | -80.28439 | 26 ft | 10 kts | 266° |
| 2026-05-04 19:03 | 25.79322 | -80.28525 | 25 ft | 13 kts | 266° |
| 2026-05-04 19:03 | 25.79271 | -80.28613 | 24 ft | 15 kts | 243° |
| 2026-05-04 19:03 | 25.79290 | -80.28728 | 19 ft | 12 kts | 295° |
| 2026-05-04 19:04 | 25.79297 | -80.28743 | 19 ft | 2 kts | 298° |
| 2026-05-04 19:04 | 25.79309 | -80.28767 | 19 ft | 5 kts | 298° |
| 2026-05-04 19:04 | 25.79328 | -80.28807 | 19 ft | 7 kts | 299° |
| 2026-05-04 19:04 | 25.79352 | -80.28854 | 21 ft | 7 kts | 299° |
| 2026-05-04 19:05 | 25.79378 | -80.28906 | 24 ft | 8 kts | 299° |
| 2026-05-04 19:05 | 25.79407 | -80.28964 | 23 ft | 9 kts | 299° |
| 2026-05-04 19:05 | 25.79444 | -80.29033 | 24 ft | 11 kts | 300° |
| 2026-05-04 19:05 | 25.79486 | -80.29114 | 22 ft | 13 kts | 300° |
| 2026-05-04 19:06 | 25.79529 | -80.29200 | 24 ft | 13 kts | 299° |
| 2026-05-04 19:06 | 25.79575 | -80.29290 | 24 ft | 14 kts | 299° |
| 2026-05-04 19:06 | 25.79629 | -80.29396 | 22 ft | 17 kts | 299° |
| 2026-05-04 19:06 | 25.79692 | -80.29520 | 22 ft | 19 kts | 300° |
| 2026-05-04 19:07 | 25.79764 | -80.29659 | 21 ft | 22 kts | 300° |
| 2026-05-04 19:07 | 25.79807 | -80.29743 | 17 ft | 10 kts | 299° |
| 2026-05-04 19:07 | 25.79844 | -80.29815 | 18 ft | 11 kts | 300° |
| 2026-05-04 19:07 | 25.79881 | -80.29889 | 19 ft | 8 kts | 299° |
| 2026-05-04 19:08 | 25.79883 | -80.29893 | 19 ft | 0 kts | 299° |
| 2026-05-04 19:11 | 25.79885 | -80.29898 | 19 ft | 2 kts | 299° |
| 2026-05-04 19:11 | 25.79895 | -80.29918 | 18 ft | 0 kts | 298° |
| 2026-05-04 19:11 | 25.79896 | -80.29919 | 19 ft | 0 kts | 298° |
| 2026-05-04 19:12 | 25.79902 | -80.29931 | 18 ft | 3 kts | 298° |
| 2026-05-04 19:12 | 25.79946 | -80.30024 | 18 ft | 10 kts | 299° |
| 2026-05-04 19:12 | 25.79987 | -80.30096 | 20 ft | 12 kts | 310° |
| 2026-05-04 19:13 | 25.80059 | -80.30127 | 23 ft | 9 kts | 12° |
| 2026-05-04 19:13 | 25.80073 | -80.30084 | 21 ft | 0 kts | 87° |
| 2026-05-04 19:13 | 25.80074 | -80.30054 | 21 ft | 24 kts | 87° |
| 2026-05-04 19:13 | 25.80093 | -80.29607 | 20 ft | 90 kts | 87° |
| 2026-05-04 19:14 | 25.80132 | -80.28706 | 27 ft | 143 kts | 86° |
| 2026-05-04 19:14 | 25.80186 | -80.27464 | 265 ft | 168 kts | 85° |
| 2026-05-04 19:14 | 25.80255 | -80.26171 | 828 ft | 171 kts | 83° |
| 2026-05-04 19:14 | 25.80159 | -80.24820 | 1352 ft | 184 kts | 108° |
| 2026-05-04 19:15 | 25.79559 | -80.23530 | 2006 ft | 193 kts | 118° |
| 2026-05-04 19:15 | 25.78867 | -80.22231 | 2689 ft | 200 kts | 116° |
| 2026-05-04 19:15 | 25.78173 | -80.20854 | 2930 ft | 204 kts | 115° |
| 2026-05-04 19:15 | 25.77501 | -80.19460 | 2990 ft | 206 kts | 114° |
| 2026-05-04 19:16 | 25.76839 | -80.18040 | 3042 ft | 209 kts | 114° |
| 2026-05-04 19:16 | 25.76138 | -80.16591 | 3128 ft | 215 kts | 116° |
| 2026-05-04 19:16 | 25.75376 | -80.15074 | 3330 ft | 237 kts | 116° |
| 2026-05-04 19:16 | 25.74544 | -80.13407 | 3741 ft | 254 kts | 116° |
| 2026-05-04 19:17 | 25.73899 | -80.11572 | 4303 ft | 260 kts | 95° |
| 2026-05-04 19:17 | 25.74214 | -80.09623 | 4919 ft | 263 kts | 61° |
| 2026-05-04 19:17 | 25.75370 | -80.08039 | 5562 ft | 267 kts | 44° |
| 2026-05-04 19:17 | 25.76711 | -80.06567 | 6190 ft | 275 kts | 45° |
| 2026-05-04 19:18 | 25.78046 | -80.05043 | 6931 ft | 277 kts | 46° |
| 2026-05-04 19:18 | 25.79371 | -80.03459 | 7658 ft | 282 kts | 46° |
| 2026-05-04 19:18 | 25.80700 | -80.01826 | 8353 ft | 289 kts | 47° |
| 2026-05-04 19:18 | 25.82052 | -80.00139 | 8998 ft | 296 kts | 47° |
| 2026-05-04 19:19 | 25.83432 | -79.98402 | 9652 ft | 303 kts | 47° |
| 2026-05-04 19:19 | 25.84834 | -79.96630 | 10263 ft | 312 kts | 47° |
| 2026-05-04 19:19 | 25.86309 | -79.94762 | 10584 ft | 332 kts | 47° |
| 2026-05-04 19:19 | 25.87871 | -79.92781 | 10904 ft | 351 kts | 47° |
| 2026-05-04 19:20 | 25.89496 | -79.90717 | 11223 ft | 368 kts | 47° |
| 2026-05-04 19:20 | 25.91217 | -79.88529 | 11563 ft | 383 kts | 47° |
| 2026-05-04 19:20 | 25.92986 | -79.86276 | 12097 ft | 390 kts | 47° |
| 2026-05-04 19:20 | 25.94809 | -79.83952 | 12700 ft | 396 kts | 47° |
| 2026-05-04 19:21 | 25.96627 | -79.81633 | 13314 ft | 401 kts | 47° |
| 2026-05-04 19:21 | 25.98444 | -79.79314 | 13929 ft | 404 kts | 47° |
| 2026-05-04 19:21 | 26.00262 | -79.76993 | 14500 ft | 408 kts | 47° |
| 2026-05-04 19:21 | 26.02166 | -79.74563 | 15064 ft | 413 kts | 46° |
| 2026-05-04 19:22 | 26.04057 | -79.72148 | 15639 ft | 416 kts | 46° |
| 2026-05-04 19:22 | 26.05970 | -79.69704 | 16174 ft | 420 kts | 46° |
| 2026-05-04 19:22 | 26.07894 | -79.67245 | 16740 ft | 424 kts | 46° |
| 2026-05-04 19:22 | 26.09837 | -79.64756 | 17248 ft | 428 kts | 46° |
| 2026-05-04 19:23 | 26.11672 | -79.62123 | 17750 ft | 434 kts | 52° |
| 2026-05-04 19:23 | 26.13426 | -79.59374 | 18283 ft | 437 kts | 52° |
| 2026-05-04 19:23 | 26.15181 | -79.56598 | 18803 ft | 441 kts | 52° |
| 2026-05-04 19:23 | 26.16954 | -79.53794 | 19321 ft | 444 kts | 52° |
| 2026-05-04 19:24 | 26.18741 | -79.50971 | 19857 ft | 447 kts | 52° |
| 2026-05-04 19:24 | 26.20539 | -79.48134 | 20334 ft | 452 kts | 52° |
| 2026-05-04 19:24 | 26.22355 | -79.45267 | 20835 ft | 455 kts | 52° |
| 2026-05-04 19:24 | 26.24186 | -79.42375 | 21326 ft | 458 kts | 52° |
| 2026-05-04 19:25 | 26.26031 | -79.39459 | 21796 ft | 462 kts | 52° |
| 2026-05-04 19:25 | 26.27926 | -79.36553 | 22247 ft | 464 kts | 48° |
| 2026-05-04 19:25 | 26.30210 | -79.34050 | 22697 ft | 460 kts | 33° |
| 2026-05-04 19:25 | 26.32858 | -79.32039 | 23139 ft | 460 kts | 28° |
| 2026-05-04 19:26 | 26.35569 | -79.30127 | 23588 ft | 463 kts | 28° |
| 2026-05-04 19:26 | 26.38299 | -79.28203 | 24041 ft | 466 kts | 28° |
| 2026-05-04 19:26 | 26.41051 | -79.26255 | 24476 ft | 470 kts | 28° |
| 2026-05-04 19:26 | 26.43816 | -79.24292 | 24936 ft | 473 kts | 28° |
| 2026-05-04 19:27 | 26.46602 | -79.22309 | 25353 ft | 477 kts | 28° |
| 2026-05-04 19:27 | 26.49407 | -79.20309 | 25839 ft | 480 kts | 28° |
| 2026-05-04 19:27 | 26.52224 | -79.18298 | 26286 ft | 482 kts | 27° |
| 2026-05-04 19:27 | 26.55065 | -79.16269 | 26696 ft | 486 kts | 27° |
| 2026-05-04 19:28 | 26.57927 | -79.14223 | 27122 ft | 490 kts | 27° |
| 2026-05-04 19:28 | 26.60801 | -79.12167 | 27545 ft | 493 kts | 27° |
| 2026-05-04 19:28 | 26.63702 | -79.10091 | 27969 ft | 496 kts | 27° |
| 2026-05-04 19:28 | 26.66611 | -79.08008 | 28375 ft | 498 kts | 27° |
| 2026-05-04 19:29 | 26.69534 | -79.05914 | 28753 ft | 501 kts | 26° |
| 2026-05-04 19:29 | 26.72476 | -79.03804 | 29144 ft | 504 kts | 26° |
| 2026-05-04 19:29 | 26.75437 | -79.01677 | 29503 ft | 507 kts | 26° |
| 2026-05-04 19:29 | 26.78412 | -78.99542 | 29869 ft | 509 kts | 26° |
| 2026-05-04 19:30 | 26.81405 | -78.97392 | 30215 ft | 512 kts | 26° |
| 2026-05-04 19:30 | 26.84406 | -78.95235 | 30558 ft | 516 kts | 26° |
| 2026-05-04 19:30 | 26.87435 | -78.93056 | 30872 ft | 518 kts | 26° |
| 2026-05-04 19:30 | 26.90483 | -78.90863 | 31165 ft | 522 kts | 26° |
| 2026-05-04 19:31 | 26.93545 | -78.88657 | 31448 ft | 525 kts | 26° |
| 2026-05-04 19:31 | 26.96620 | -78.86440 | 31729 ft | 527 kts | 26° |
| 2026-05-04 19:31 | 26.99710 | -78.84211 | 32014 ft | 530 kts | 26° |
| 2026-05-04 19:31 | 27.02822 | -78.81966 | 32276 ft | 532 kts | 27° |
| 2026-05-04 19:32 | 27.05941 | -78.79713 | 32564 ft | 534 kts | 27° |
| 2026-05-04 19:32 | 27.09060 | -78.77456 | 32926 ft | 533 kts | 27° |
| 2026-05-04 19:32 | 27.12182 | -78.75195 | 33248 ft | 533 kts | 27° |
| 2026-05-04 19:32 | 27.15254 | -78.72972 | 33600 ft | 533 kts | 27° |
| 2026-05-04 19:33 | 27.18371 | -78.70715 | 33958 ft | 532 kts | 27° |
| 2026-05-04 19:33 | 27.21480 | -78.68460 | 34285 ft | 532 kts | 27° |
| 2026-05-04 19:33 | 27.24590 | -78.66205 | 34518 ft | 533 kts | 27° |
| 2026-05-04 19:33 | 27.27644 | -78.63800 | 34750 ft | 540 kts | 34° |
| 2026-05-04 19:34 | 27.30330 | -78.60811 | 35010 ft | 548 kts | 46° |
| 2026-05-04 19:34 | 27.32730 | -78.57470 | 35230 ft | 551 kts | 48° |
| 2026-05-04 19:34 | 27.35097 | -78.54080 | 35482 ft | 551 kts | 48° |
| 2026-05-04 19:34 | 27.37463 | -78.50690 | 35705 ft | 551 kts | 48° |
| 2026-05-04 19:35 | 27.39834 | -78.47296 | 35894 ft | 552 kts | 48° |
| 2026-05-04 19:35 | 27.42208 | -78.43904 | 36127 ft | 552 kts | 47° |
| 2026-05-04 19:35 | 27.44585 | -78.40506 | 36335 ft | 553 kts | 47° |
| 2026-05-04 19:35 | 27.46970 | -78.37099 | 36478 ft | 554 kts | 48° |
| 2026-05-04 19:36 | 27.49357 | -78.33687 | 36688 ft | 555 kts | 48° |
| 2026-05-04 19:36 | 27.51739 | -78.30279 | 36878 ft | 555 kts | 48° |
| 2026-05-04 19:36 | 27.54133 | -78.26851 | 37025 ft | 557 kts | 48° |
| 2026-05-04 19:37 | 27.58955 | -78.19940 | 37058 ft | 564 kts | 48° |
| 2026-05-04 19:37 | 27.63824 | -78.12949 | 37059 ft | 568 kts | 48° |
| 2026-05-04 19:38 | 27.68708 | -78.05924 | 37055 ft | 569 kts | 48° |
| 2026-05-04 19:38 | 27.73593 | -77.98886 | 37055 ft | 570 kts | 48° |
| 2026-05-04 19:39 | 27.78475 | -77.91842 | 37055 ft | 570 kts | 49° |
| 2026-05-04 19:39 | 27.83356 | -77.84792 | 37054 ft | 570 kts | 49° |
| 2026-05-04 19:40 | 27.88231 | -77.77733 | 37055 ft | 570 kts | 49° |
| 2026-05-04 19:40 | 27.93071 | -77.70715 | 37054 ft | 570 kts | 49° |
| 2026-05-04 19:41 | 27.97943 | -77.63643 | 37055 ft | 570 kts | 49° |
| 2026-05-04 19:41 | 28.02806 | -77.56567 | 37050 ft | 565 kts | 49° |
| 2026-05-04 19:42 | 28.07557 | -77.49638 | 37052 ft | 553 kts | 49° |
| 2026-05-04 19:42 | 28.12264 | -77.42774 | 37055 ft | 552 kts | 49° |
| 2026-05-04 19:43 | 28.16970 | -77.35897 | 37056 ft | 552 kts | 49° |
| 2026-05-04 19:43 | 28.21673 | -77.29014 | 37051 ft | 552 kts | 49° |
| 2026-05-04 19:44 | 28.26371 | -77.22125 | 37052 ft | 552 kts | 49° |
| 2026-05-04 19:44 | 28.31066 | -77.15229 | 37055 ft | 552 kts | 49° |
| 2026-05-04 19:45 | 28.35752 | -77.08333 | 37051 ft | 552 kts | 49° |
| 2026-05-04 19:45 | 28.40456 | -77.01405 | 37053 ft | 552 kts | 49° |
| 2026-05-04 19:46 | 28.45134 | -76.94500 | 37052 ft | 552 kts | 49° |
| 2026-05-04 19:46 | 28.49812 | -76.87584 | 37055 ft | 552 kts | 50° |
| 2026-05-04 19:47 | 28.54463 | -76.80697 | 37059 ft | 553 kts | 50° |
| 2026-05-04 19:47 | 28.59168 | -76.73717 | 37063 ft | 552 kts | 50° |
| 2026-05-04 19:48 | 28.63810 | -76.66820 | 37062 ft | 552 kts | 50° |
| 2026-05-04 19:48 | 28.68481 | -76.59871 | 37063 ft | 552 kts | 50° |
| 2026-05-04 19:49 | 28.73172 | -76.52951 | 37071 ft | 551 kts | 48° |
| 2026-05-04 19:49 | 28.78105 | -76.46272 | 37073 ft | 551 kts | 46° |
| 2026-05-04 19:50 | 28.82250 | -76.40777 | 37072 ft | 550 kts | 46° |
| 2026-05-04 19:50 | 28.87245 | -76.34079 | 37072 ft | 551 kts | 47° |
| 2026-05-04 19:51 | 28.92145 | -76.27433 | 37071 ft | 551 kts | 47° |
| 2026-05-04 19:51 | 28.97072 | -76.20720 | 37073 ft | 552 kts | 47° |
| 2026-05-04 19:52 | 29.02002 | -76.13991 | 37073 ft | 552 kts | 47° |
| 2026-05-04 19:52 | 29.06927 | -76.07258 | 37072 ft | 552 kts | 47° |
| 2026-05-04 19:53 | 29.11850 | -76.00522 | 37072 ft | 552 kts | 47° |
| 2026-05-04 19:53 | 29.16776 | -75.93772 | 37073 ft | 554 kts | 48° |
| 2026-05-04 19:54 | 29.21725 | -75.86978 | 37073 ft | 556 kts | 48° |
| 2026-05-04 19:54 | 29.26677 | -75.80166 | 37072 ft | 556 kts | 48° |
| 2026-05-04 19:55 | 29.31621 | -75.73353 | 37072 ft | 556 kts | 48° |
| 2026-05-04 19:55 | 29.36564 | -75.66533 | 37073 ft | 556 kts | 48° |
| 2026-05-04 19:56 | 29.41502 | -75.59709 | 37072 ft | 556 kts | 48° |
| 2026-05-04 19:56 | 29.46401 | -75.52923 | 37063 ft | 557 kts | 48° |
| 2026-05-04 19:57 | 29.51345 | -75.46067 | 37063 ft | 557 kts | 48° |
| 2026-05-04 19:57 | 29.56278 | -75.39216 | 37065 ft | 557 kts | 48° |
| 2026-05-04 19:58 | 29.61214 | -75.32353 | 37063 ft | 557 kts | 49° |
| 2026-05-04 19:58 | 29.66149 | -75.25471 | 37062 ft | 558 kts | 49° |
| 2026-05-04 19:59 | 29.71086 | -75.18577 | 37063 ft | 559 kts | 49° |
| 2026-05-04 19:59 | 29.76025 | -75.11666 | 37063 ft | 559 kts | 49° |
| 2026-05-04 20:00 | 29.80969 | -75.04737 | 37064 ft | 560 kts | 49° |
| 2026-05-04 20:00 | 29.85924 | -74.97788 | 37063 ft | 562 kts | 49° |
| 2026-05-04 20:01 | 29.90873 | -74.90827 | 37063 ft | 562 kts | 49° |
| 2026-05-04 20:01 | 29.95837 | -74.83834 | 37063 ft | 564 kts | 50° |
| 2026-05-04 20:02 | 30.00807 | -74.76822 | 37064 ft | 565 kts | 50° |
| 2026-05-04 20:02 | 30.05776 | -74.69800 | 37063 ft | 566 kts | 50° |
| 2026-05-04 20:03 | 30.10757 | -74.62747 | 37066 ft | 567 kts | 50° |
| 2026-05-04 20:03 | 30.15743 | -74.55675 | 37062 ft | 568 kts | 50° |
| 2026-05-04 20:04 | 30.20731 | -74.48589 | 37063 ft | 568 kts | 50° |
| 2026-05-04 20:04 | 30.25715 | -74.41496 | 37063 ft | 569 kts | 50° |
| 2026-05-04 20:05 | 30.30701 | -74.34385 | 37063 ft | 569 kts | 51° |
| 2026-05-04 20:05 | 30.35658 | -74.27304 | 37063 ft | 570 kts | 50° |
| 2026-05-04 20:06 | 30.40644 | -74.20168 | 37082 ft | 570 kts | 51° |
| 2026-05-04 20:06 | 30.45627 | -74.13024 | 37082 ft | 570 kts | 51° |
| 2026-05-04 20:07 | 30.50604 | -74.05876 | 37081 ft | 570 kts | 51° |
| 2026-05-04 20:07 | 30.55583 | -73.98717 | 37082 ft | 570 kts | 51° |
| 2026-05-04 20:08 | 30.60561 | -73.91548 | 37073 ft | 571 kts | 51° |
| 2026-05-04 20:08 | 30.65538 | -73.84360 | 37073 ft | 572 kts | 51° |
| 2026-05-04 20:09 | 30.70516 | -73.77152 | 37072 ft | 572 kts | 51° |
| 2026-05-04 20:09 | 30.75491 | -73.69937 | 37073 ft | 573 kts | 52° |
| 2026-05-04 20:10 | 30.80468 | -73.62704 | 37075 ft | 573 kts | 52° |
| 2026-05-04 20:10 | 30.85442 | -73.55462 | 37081 ft | 573 kts | 52° |
| 2026-05-04 20:11 | 30.90410 | -73.48225 | 37083 ft | 573 kts | 52° |
| 2026-05-04 20:11 | 30.95380 | -73.40968 | 37082 ft | 574 kts | 52° |
| 2026-05-04 20:12 | 31.00324 | -73.33734 | 37082 ft | 574 kts | 52° |
| 2026-05-04 20:12 | 31.05327 | -73.26397 | 37084 ft | 574 kts | 52° |
| 2026-05-04 20:13 | 31.10261 | -73.19157 | 37081 ft | 574 kts | 52° |
| 2026-05-04 20:13 | 31.15228 | -73.11849 | 37082 ft | 575 kts | 52° |
| 2026-05-04 20:14 | 31.20190 | -73.04533 | 37084 ft | 576 kts | 53° |
| 2026-05-04 20:14 | 31.25158 | -72.97196 | 37102 ft | 575 kts | 53° |
| 2026-05-04 20:15 | 31.30126 | -72.89846 | 37099 ft | 577 kts | 53° |
| 2026-05-04 20:15 | 31.35095 | -72.82478 | 37084 ft | 577 kts | 53° |
| 2026-05-04 20:16 | 31.40067 | -72.75091 | 37085 ft | 578 kts | 53° |
| 2026-05-04 20:16 | 31.45047 | -72.67683 | 37084 ft | 578 kts | 53° |
| 2026-05-04 20:17 | 31.50023 | -72.60261 | 37100 ft | 580 kts | 54° |
| 2026-05-04 20:17 | 31.55003 | -72.52818 | 37087 ft | 581 kts | 54° |
| 2026-05-04 20:18 | 31.59996 | -72.45346 | 37085 ft | 582 kts | 54° |
| 2026-05-04 20:18 | 31.64961 | -72.37903 | 37084 ft | 583 kts | 54° |
| 2026-05-04 20:19 | 31.69958 | -72.30400 | 37099 ft | 584 kts | 54° |
| 2026-05-04 20:19 | 31.74964 | -72.22863 | 37099 ft | 586 kts | 55° |
| 2026-05-04 20:20 | 31.79973 | -72.15306 | 37101 ft | 587 kts | 55° |
| 2026-05-04 20:20 | 31.84983 | -72.07734 | 37085 ft | 587 kts | 55° |
| 2026-05-04 20:21 | 31.89994 | -72.00140 | 37084 ft | 587 kts | 55° |
| 2026-05-04 20:21 | 31.97501 | -71.88741 | 37103 ft | 587 kts | 55° |
| 2026-05-04 20:22 | 32.02502 | -71.81127 | 37097 ft | 587 kts | 55° |
| 2026-05-04 20:22 | 32.07500 | -71.73510 | 37101 ft | 587 kts | 56° |
| 2026-05-04 20:23 | 32.12487 | -71.65881 | 37100 ft | 587 kts | 55° |
| 2026-05-04 20:23 | 32.17477 | -71.58236 | 37100 ft | 588 kts | 55° |
| 2026-05-04 20:24 | 32.22464 | -71.50588 | 37099 ft | 587 kts | 55° |
| 2026-05-04 20:24 | 32.27438 | -71.42943 | 37101 ft | 587 kts | 55° |
| 2026-05-04 20:25 | 32.32377 | -71.35336 | 37098 ft | 587 kts | 55° |
| 2026-05-04 20:25 | 32.37346 | -71.27661 | 37095 ft | 588 kts | 55° |
| 2026-05-04 20:26 | 32.42311 | -71.19975 | 37097 ft | 587 kts | 55° |
| 2026-05-04 20:26 | 32.47271 | -71.12285 | 37104 ft | 587 kts | 55° |
| 2026-05-04 20:27 | 32.52226 | -71.04591 | 37104 ft | 587 kts | 55° |
| 2026-05-04 20:27 | 32.57169 | -70.96899 | 37103 ft | 587 kts | 55° |
| 2026-05-04 20:28 | 32.62115 | -70.89181 | 37106 ft | 587 kts | 55° |
| 2026-05-04 20:28 | 32.67053 | -70.81457 | 37105 ft | 588 kts | 55° |
| 2026-05-04 20:29 | 32.71990 | -70.73721 | 37100 ft | 588 kts | 54° |
| 2026-05-04 20:29 | 32.76920 | -70.65990 | 37103 ft | 587 kts | 55° |
| 2026-05-04 20:30 | 32.81840 | -70.58256 | 37100 ft | 587 kts | 55° |
| 2026-05-04 20:30 | 32.86754 | -70.50503 | 37103 ft | 587 kts | 55° |
| 2026-05-04 20:31 | 32.91668 | -70.42743 | 37092 ft | 587 kts | 55° |
| 2026-05-04 20:31 | 32.96580 | -70.34972 | 37106 ft | 588 kts | 55° |
| 2026-05-04 20:32 | 33.01491 | -70.27184 | 37103 ft | 589 kts | 55° |
| 2026-05-04 20:32 | 33.06417 | -70.19357 | 37105 ft | 589 kts | 55° |
| 2026-05-04 20:33 | 33.11328 | -70.11536 | 37100 ft | 590 kts | 56° |
| 2026-05-04 20:33 | 33.16244 | -70.03694 | 37115 ft | 591 kts | 56° |
| 2026-05-04 20:34 | 33.21156 | -69.95832 | 37103 ft | 591 kts | 56° |
| 2026-05-04 20:34 | 33.26066 | -69.87969 | 37102 ft | 591 kts | 56° |
| 2026-05-04 20:35 | 33.30976 | -69.80087 | 37101 ft | 590 kts | 56° |
| 2026-05-04 20:35 | 33.35871 | -69.72211 | 37096 ft | 590 kts | 56° |
| 2026-05-04 20:36 | 33.40730 | -69.64361 | 37095 ft | 592 kts | 56° |
| 2026-05-04 20:36 | 33.45625 | -69.56434 | 37097 ft | 591 kts | 56° |
| 2026-05-04 20:37 | 33.50516 | -69.48509 | 37100 ft | 592 kts | 56° |
| 2026-05-04 20:37 | 33.55396 | -69.40577 | 37102 ft | 591 kts | 57° |
| 2026-05-04 20:38 | 33.60269 | -69.32640 | 37109 ft | 590 kts | 57° |
| 2026-05-04 20:38 | 33.65132 | -69.24708 | 37113 ft | 590 kts | 56° |
| 2026-05-04 20:39 | 33.69998 | -69.16773 | 37112 ft | 591 kts | 56° |
| 2026-05-04 20:39 | 33.74031 | -69.10165 | 37113 ft | 589 kts | 56° |
| 2026-05-04 20:40 | 33.78867 | -69.02214 | 37106 ft | 589 kts | 56° |
| 2026-05-04 20:40 | 33.83690 | -68.94279 | 37103 ft | 587 kts | 56° |
| 2026-05-04 20:41 | 33.88503 | -68.86345 | 37115 ft | 586 kts | 57° |
| 2026-05-04 20:41 | 33.93299 | -68.78414 | 37111 ft | 585 kts | 57° |
| 2026-05-04 20:42 | 33.98087 | -68.70488 | 37112 ft | 585 kts | 56° |
| 2026-05-04 20:42 | 34.02872 | -68.62551 | 37113 ft | 585 kts | 57° |
| 2026-05-04 20:43 | 34.07666 | -68.54579 | 37122 ft | 588 kts | 57° |
| 2026-05-04 20:43 | 34.12468 | -68.46581 | 37121 ft | 587 kts | 57° |
| 2026-05-04 20:44 | 34.17246 | -68.38597 | 37120 ft | 586 kts | 57° |
| 2026-05-04 20:44 | 34.22016 | -68.30608 | 37095 ft | 586 kts | 57° |
| 2026-05-04 20:45 | 34.26777 | -68.22611 | 37105 ft | 585 kts | 57° |
| 2026-05-04 20:45 | 34.31528 | -68.14624 | 37083 ft | 585 kts | 57° |
| 2026-05-04 20:46 | 34.36279 | -68.06622 | 37085 ft | 585 kts | 57° |
| 2026-05-04 20:46 | 34.41021 | -67.98617 | 37099 ft | 586 kts | 57° |
| 2026-05-04 20:47 | 34.45756 | -67.90596 | 37092 ft | 585 kts | 57° |
| 2026-05-04 20:47 | 34.50484 | -67.82572 | 37101 ft | 585 kts | 57° |
| 2026-05-04 20:48 | 34.55216 | -67.74522 | 37105 ft | 587 kts | 57° |
| 2026-05-04 20:48 | 34.59959 | -67.66441 | 37098 ft | 588 kts | 57° |
| 2026-05-04 20:49 | 34.64702 | -67.58340 | 37096 ft | 589 kts | 57° |
| 2026-05-04 20:49 | 34.69419 | -67.50265 | 37103 ft | 591 kts | 57° |
| 2026-05-04 20:50 | 34.74170 | -67.42111 | 37084 ft | 591 kts | 57° |
| 2026-05-04 20:50 | 34.78926 | -67.33928 | 37085 ft | 593 kts | 57° |
| 2026-05-04 20:51 | 34.83682 | -67.25728 | 37085 ft | 594 kts | 57° |
| 2026-05-04 20:51 | 34.88438 | -67.17510 | 37102 ft | 594 kts | 57° |
| 2026-05-04 20:52 | 34.93197 | -67.09266 | 37088 ft | 595 kts | 57° |
| 2026-05-04 20:52 | 34.97964 | -67.01006 | 37095 ft | 595 kts | 57° |
| 2026-05-04 20:53 | 35.02716 | -66.92740 | 37085 ft | 595 kts | 57° |
| 2026-05-04 20:53 | 35.07456 | -66.84456 | 37096 ft | 595 kts | 57° |
| 2026-05-04 20:54 | 35.12199 | -66.76156 | 37102 ft | 596 kts | 57° |
| 2026-05-04 20:54 | 35.16944 | -66.67850 | 37098 ft | 597 kts | 57° |
| 2026-05-04 20:55 | 35.21688 | -66.59522 | 37091 ft | 596 kts | 57° |
| 2026-05-04 20:55 | 35.26419 | -66.51191 | 37092 ft | 596 kts | 57° |
| 2026-05-04 20:56 | 35.31145 | -66.42848 | 37085 ft | 597 kts | 57° |
| 2026-05-04 20:56 | 35.35866 | -66.34498 | 37084 ft | 597 kts | 57° |
| 2026-05-04 20:57 | 35.40588 | -66.26127 | 37087 ft | 596 kts | 57° |
| 2026-05-04 20:57 | 35.45296 | -66.17753 | 37102 ft | 597 kts | 57° |
| 2026-05-04 20:58 | 35.50004 | -66.09355 | 37095 ft | 597 kts | 57° |
| 2026-05-04 20:58 | 35.54704 | -66.00954 | 37085 ft | 597 kts | 57° |
| 2026-05-04 20:59 | 35.59367 | -65.92604 | 37100 ft | 597 kts | 57° |
| 2026-05-04 20:59 | 35.64089 | -65.84129 | 37080 ft | 596 kts | 57° |
| 2026-05-04 21:00 | 35.68732 | -65.75772 | 37082 ft | 597 kts | 57° |
| 2026-05-04 21:00 | 35.73411 | -65.67333 | 37082 ft | 597 kts | 57° |
| 2026-05-04 21:01 | 35.78083 | -65.58882 | 37084 ft | 597 kts | 57° |
| 2026-05-04 21:01 | 35.82753 | -65.50424 | 37081 ft | 597 kts | 57° |
| 2026-05-04 21:02 | 35.87415 | -65.41954 | 37082 ft | 597 kts | 57° |
| 2026-05-04 21:02 | 35.92066 | -65.33484 | 37082 ft | 597 kts | 57° |
| 2026-05-04 21:03 | 35.96712 | -65.24992 | 37073 ft | 596 kts | 57° |
| 2026-05-04 21:03 | 36.01350 | -65.16505 | 37073 ft | 596 kts | 57° |
| 2026-05-04 21:04 | 36.05991 | -65.07989 | 37074 ft | 602 kts | 57° |
| 2026-05-04 21:04 | 36.10669 | -64.99380 | 37073 ft | 603 kts | 57° |
| 2026-05-04 21:05 | 36.15346 | -64.90755 | 37073 ft | 604 kts | 57° |
| 2026-05-04 21:05 | 36.20022 | -64.82119 | 37072 ft | 605 kts | 57° |
| 2026-05-04 21:06 | 36.24694 | -64.73455 | 37065 ft | 605 kts | 57° |
| 2026-05-04 21:06 | 36.29357 | -64.64784 | 37062 ft | 604 kts | 57° |
| 2026-05-04 21:07 | 36.34017 | -64.56102 | 37065 ft | 605 kts | 57° |
| 2026-05-04 21:07 | 36.38675 | -64.47403 | 37056 ft | 605 kts | 57° |
| 2026-05-04 21:08 | 36.43319 | -64.38704 | 37057 ft | 605 kts | 57° |
| 2026-05-04 21:08 | 36.47960 | -64.29993 | 37052 ft | 605 kts | 57° |
| 2026-05-04 21:09 | 36.52567 | -64.21322 | 37054 ft | 605 kts | 57° |
| 2026-05-04 21:09 | 36.57200 | -64.12582 | 37031 ft | 605 kts | 57° |
| 2026-05-04 21:10 | 36.61828 | -64.03831 | 37029 ft | 605 kts | 58° |
| 2026-05-04 21:10 | 36.66441 | -63.95071 | 37026 ft | 606 kts | 57° |
| 2026-05-04 21:11 | 36.71059 | -63.86275 | 37021 ft | 606 kts | 57° |
| 2026-05-04 21:11 | 36.75677 | -63.77475 | 37016 ft | 607 kts | 57° |
| 2026-05-04 21:12 | 36.80287 | -63.68663 | 37017 ft | 607 kts | 57° |
| 2026-05-04 21:12 | 36.84908 | -63.59818 | 37016 ft | 609 kts | 57° |
| 2026-05-04 21:13 | 36.89530 | -63.50946 | 37008 ft | 610 kts | 57° |
| 2026-05-04 21:13 | 36.94143 | -63.42051 | 37026 ft | 611 kts | 58° |
| 2026-05-04 21:14 | 36.98758 | -63.33135 | 37027 ft | 611 kts | 58° |
| 2026-05-04 21:14 | 37.03359 | -63.24229 | 37017 ft | 608 kts | 58° |
| 2026-05-04 21:15 | 37.07934 | -63.15338 | 37017 ft | 608 kts | 58° |
| 2026-05-04 21:15 | 37.12505 | -63.06433 | 37017 ft | 608 kts | 59° |
| 2026-05-04 21:16 | 37.17073 | -62.97512 | 37012 ft | 608 kts | 58° |
| 2026-05-04 21:16 | 37.21635 | -62.88575 | 37008 ft | 608 kts | 58° |
| 2026-05-04 21:17 | 37.26184 | -62.79649 | 37008 ft | 607 kts | 58° |
| 2026-05-04 21:17 | 37.30729 | -62.70704 | 37008 ft | 608 kts | 59° |
| 2026-05-04 21:18 | 37.35269 | -62.61746 | 36993 ft | 608 kts | 58° |
| 2026-05-04 21:18 | 37.39804 | -62.52775 | 36989 ft | 609 kts | 58° |
| 2026-05-04 21:19 | 37.44341 | -62.43784 | 36990 ft | 608 kts | 58° |
| 2026-05-04 21:19 | 37.48869 | -62.34771 | 36982 ft | 609 kts | 58° |
| 2026-05-04 21:20 | 37.53362 | -62.25804 | 36987 ft | 609 kts | 59° |
| 2026-05-04 21:20 | 37.57885 | -62.16754 | 36981 ft | 610 kts | 59° |
| 2026-05-04 21:21 | 37.62398 | -62.07684 | 36973 ft | 610 kts | 59° |
| 2026-05-04 21:21 | 37.66900 | -61.98618 | 36971 ft | 610 kts | 59° |
| 2026-05-04 21:22 | 37.71407 | -61.89531 | 36971 ft | 610 kts | 59° |
| 2026-05-04 21:22 | 37.75904 | -61.80443 | 36970 ft | 610 kts | 59° |
| 2026-05-04 21:23 | 37.80396 | -61.71339 | 36961 ft | 610 kts | 59° |
| 2026-05-04 21:23 | 37.84874 | -61.62226 | 36962 ft | 609 kts | 59° |
| 2026-05-04 21:24 | 37.89347 | -61.53111 | 36962 ft | 610 kts | 59° |
| 2026-05-04 21:24 | 37.93807 | -61.43988 | 36958 ft | 609 kts | 59° |
| 2026-05-04 21:25 | 37.98252 | -61.34867 | 36952 ft | 608 kts | 59° |
| 2026-05-04 21:25 | 38.02685 | -61.25747 | 36953 ft | 609 kts | 59° |
| 2026-05-04 21:26 | 38.07129 | -61.16571 | 36953 ft | 611 kts | 59° |
| 2026-05-04 21:26 | 38.10829 | -61.08921 | 36943 ft | 612 kts | 59° |
| 2026-05-04 21:27 | 38.15272 | -60.99712 | 36944 ft | 611 kts | 59° |
| 2026-05-04 21:27 | 38.19705 | -60.90496 | 36944 ft | 611 kts | 59° |
| 2026-05-04 21:28 | 38.24129 | -60.81279 | 36943 ft | 610 kts | 59° |
| 2026-05-04 21:28 | 38.28533 | -60.72066 | 36934 ft | 609 kts | 59° |
| 2026-05-04 21:29 | 38.32929 | -60.62843 | 36935 ft | 608 kts | 59° |
| 2026-05-04 21:29 | 38.37313 | -60.53622 | 36935 ft | 608 kts | 59° |
| 2026-05-04 21:30 | 38.41688 | -60.44389 | 36934 ft | 608 kts | 59° |
| 2026-05-04 21:30 | 38.46046 | -60.35168 | 36933 ft | 608 kts | 59° |
| 2026-05-04 21:31 | 38.52501 | -60.21240 | 36928 ft | 607 kts | 63° |
| 2026-05-04 21:32 | 38.56319 | -60.11641 | 36929 ft | 607 kts | 65° |
| 2026-05-04 21:32 | 38.60047 | -60.01966 | 36910 ft | 607 kts | 65° |
| 2026-05-04 21:33 | 38.63844 | -59.92330 | 36900 ft | 606 kts | 64° |
| 2026-05-04 21:33 | 38.67674 | -59.82742 | 36907 ft | 606 kts | 64° |
| 2026-05-04 21:34 | 38.71518 | -59.73119 | 36908 ft | 607 kts | 64° |
| 2026-05-04 21:34 | 38.75351 | -59.63477 | 36901 ft | 607 kts | 64° |
| 2026-05-04 21:35 | 38.79144 | -59.53889 | 36892 ft | 608 kts | 64° |
| 2026-05-04 21:35 | 38.82982 | -59.44152 | 36904 ft | 609 kts | 64° |
| 2026-05-04 21:36 | 38.86769 | -59.34515 | 36899 ft | 609 kts | 64° |
| 2026-05-04 21:36 | 38.90575 | -59.24800 | 36893 ft | 609 kts | 64° |
| 2026-05-04 21:37 | 38.94375 | -59.15075 | 36887 ft | 610 kts | 64° |
| 2026-05-04 21:37 | 38.98167 | -59.05333 | 36886 ft | 610 kts | 64° |
| 2026-05-04 21:38 | 39.01955 | -58.95570 | 36887 ft | 610 kts | 64° |
| 2026-05-04 21:38 | 39.05732 | -58.85811 | 36886 ft | 610 kts | 64° |
| 2026-05-04 21:39 | 39.09500 | -58.76050 | 36881 ft | 610 kts | 64° |
| 2026-05-04 21:39 | 39.13271 | -58.66240 | 36880 ft | 611 kts | 64° |
| 2026-05-04 21:40 | 39.17029 | -58.56432 | 36880 ft | 611 kts | 64° |
| 2026-05-04 21:40 | 39.20782 | -58.46612 | 36879 ft | 611 kts | 64° |
| 2026-05-04 21:41 | 39.24526 | -58.36779 | 36874 ft | 611 kts | 64° |
| 2026-05-04 21:41 | 39.28265 | -58.26918 | 36873 ft | 612 kts | 64° |
| 2026-05-04 21:42 | 39.32006 | -58.17028 | 36869 ft | 613 kts | 64° |
| 2026-05-04 21:42 | 39.35733 | -58.07141 | 36870 ft | 613 kts | 64° |
| 2026-05-04 21:43 | 39.39458 | -57.97217 | 36869 ft | 613 kts | 64° |
| 2026-05-04 21:43 | 39.43170 | -57.87291 | 36868 ft | 613 kts | 64° |
| 2026-05-04 21:44 | 39.46874 | -57.77369 | 36870 ft | 614 kts | 64° |
| 2026-05-04 21:44 | 39.50582 | -57.67398 | 36870 ft | 614 kts | 64° |
| 2026-05-04 21:45 | 39.54277 | -57.57432 | 36869 ft | 614 kts | 64° |
| 2026-05-04 21:45 | 39.57963 | -57.47470 | 36869 ft | 613 kts | 64° |
| 2026-05-04 21:46 | 39.61632 | -57.37495 | 36869 ft | 612 kts | 64° |
| 2026-05-04 21:46 | 39.65283 | -57.27544 | 36863 ft | 611 kts | 64° |
| 2026-05-04 21:47 | 39.68935 | -57.17566 | 36861 ft | 611 kts | 64° |
| 2026-05-04 21:47 | 39.72566 | -57.07591 | 36859 ft | 611 kts | 64° |
| 2026-05-04 21:48 | 39.76188 | -56.97609 | 36860 ft | 611 kts | 64° |
| 2026-05-04 21:48 | 39.79784 | -56.87680 | 36859 ft | 610 kts | 64° |
| 2026-05-04 21:49 | 39.83391 | -56.77682 | 36859 ft | 611 kts | 64° |
| 2026-05-04 21:49 | 39.86992 | -56.67668 | 36861 ft | 610 kts | 64° |
| 2026-05-04 21:50 | 39.90578 | -56.57660 | 36854 ft | 610 kts | 64° |
| 2026-05-04 21:50 | 39.94158 | -56.47636 | 36852 ft | 611 kts | 64° |
| 2026-05-04 21:51 | 39.97735 | -56.37573 | 36850 ft | 612 kts | 64° |
| 2026-05-04 21:51 | 40.01304 | -56.27500 | 36852 ft | 612 kts | 64° |
| 2026-05-04 21:52 | 40.04879 | -56.17390 | 36851 ft | 613 kts | 64° |
| 2026-05-04 21:52 | 40.08437 | -56.07289 | 36850 ft | 613 kts | 64° |
| 2026-05-04 21:53 | 40.11993 | -55.97157 | 36852 ft | 613 kts | 64° |
| 2026-05-04 21:53 | 40.15539 | -55.87021 | 36838 ft | 614 kts | 64° |
| 2026-05-04 21:54 | 40.19074 | -55.76866 | 36841 ft | 613 kts | 64° |
| 2026-05-04 21:54 | 40.22603 | -55.66707 | 36844 ft | 613 kts | 64° |
| 2026-05-04 21:55 | 40.26114 | -55.56536 | 36844 ft | 613 kts | 64° |
| 2026-05-04 21:55 | 40.29621 | -55.46362 | 36839 ft | 614 kts | 64° |
| 2026-05-04 21:56 | 40.33125 | -55.36167 | 36826 ft | 614 kts | 64° |
| 2026-05-04 21:56 | 40.36621 | -55.25956 | 36835 ft | 613 kts | 65° |
| 2026-05-04 21:57 | 40.40094 | -55.15765 | 36835 ft | 612 kts | 64° |
| 2026-05-04 21:57 | 40.43565 | -55.05552 | 36827 ft | 613 kts | 64° |
| 2026-05-04 21:58 | 40.47021 | -54.95338 | 36817 ft | 612 kts | 65° |
| 2026-05-04 21:58 | 40.50453 | -54.85155 | 36825 ft | 611 kts | 65° |
| 2026-05-04 21:59 | 40.53875 | -54.74973 | 36823 ft | 610 kts | 65° |
| 2026-05-04 21:59 | 40.57288 | -54.64772 | 36821 ft | 609 kts | 65° |
| 2026-05-04 22:00 | 40.60687 | -54.54594 | 36820 ft | 608 kts | 65° |
| 2026-05-04 22:00 | 40.64082 | -54.44394 | 36731 ft | 607 kts | 65° |
| 2026-05-04 22:01 | 40.67420 | -54.34314 | 36688 ft | 607 kts | 65° |
| 2026-05-04 22:01 | 40.70761 | -54.24191 | 36685 ft | 607 kts | 65° |
| 2026-05-04 22:02 | 40.74116 | -54.13973 | 36676 ft | 608 kts | 65° |
| 2026-05-04 22:02 | 40.77463 | -54.03749 | 36689 ft | 607 kts | 65° |
| 2026-05-04 22:03 | 40.80812 | -53.93503 | 36686 ft | 607 kts | 65° |
| 2026-05-04 22:03 | 40.84142 | -53.83261 | 36685 ft | 607 kts | 65° |
| 2026-05-04 22:04 | 40.87463 | -53.73006 | 36691 ft | 607 kts | 65° |
| 2026-05-04 22:04 | 40.90778 | -53.62735 | 36686 ft | 608 kts | 65° |
| 2026-05-04 22:05 | 40.94084 | -53.52453 | 36692 ft | 609 kts | 65° |
| 2026-05-04 22:05 | 40.97387 | -53.42143 | 36681 ft | 609 kts | 65° |
| 2026-05-04 22:06 | 41.00688 | -53.31805 | 36686 ft | 610 kts | 65° |
| 2026-05-04 22:06 | 41.03980 | -53.21453 | 36685 ft | 610 kts | 65° |
| 2026-05-04 22:07 | 41.07260 | -53.11079 | 36684 ft | 611 kts | 65° |
| 2026-05-04 22:07 | 41.10535 | -53.00696 | 36688 ft | 611 kts | 65° |
| 2026-05-04 22:08 | 41.13806 | -52.90296 | 36695 ft | 611 kts | 65° |
| 2026-05-04 22:08 | 41.17063 | -52.79890 | 36697 ft | 611 kts | 65° |
| 2026-05-04 22:09 | 41.20311 | -52.69466 | 36698 ft | 611 kts | 66° |
| 2026-05-04 22:09 | 41.23557 | -52.59009 | 36749 ft | 612 kts | 65° |
| 2026-05-04 22:10 | 41.26774 | -52.48624 | 36758 ft | 613 kts | 66° |
| 2026-05-04 22:10 | 41.30009 | -52.38131 | 36759 ft | 614 kts | 66° |
| 2026-05-04 22:11 | 41.33234 | -52.27599 | 36758 ft | 615 kts | 66° |
| 2026-05-04 22:11 | 41.36454 | -52.17070 | 36751 ft | 615 kts | 66° |
| 2026-05-04 22:12 | 41.39682 | -52.06509 | 36748 ft | 616 kts | 66° |
| 2026-05-04 22:12 | 41.42894 | -51.95915 | 36766 ft | 618 kts | 66° |
| 2026-05-04 22:13 | 41.46113 | -51.85283 | 36764 ft | 617 kts | 66° |
| 2026-05-04 22:13 | 41.48765 | -51.76458 | 36766 ft | 617 kts | 66° |
| 2026-05-04 22:14 | 41.51946 | -51.65831 | 36775 ft | 617 kts | 66° |
| 2026-05-04 22:14 | 41.55120 | -51.55192 | 36777 ft | 617 kts | 66° |
| 2026-05-04 22:15 | 41.58282 | -51.44561 | 36773 ft | 615 kts | 66° |
| 2026-05-04 22:15 | 41.61427 | -51.33943 | 36776 ft | 614 kts | 66° |
| 2026-05-04 22:16 | 41.64554 | -51.23339 | 36778 ft | 613 kts | 66° |
| 2026-05-04 22:16 | 41.67668 | -51.12743 | 36777 ft | 612 kts | 66° |
| 2026-05-04 22:17 | 41.70771 | -51.02150 | 36773 ft | 610 kts | 66° |
| 2026-05-04 22:17 | 41.73855 | -50.91572 | 36776 ft | 610 kts | 66° |
| 2026-05-04 22:18 | 41.76905 | -50.81050 | 36775 ft | 610 kts | 66° |
| 2026-05-04 22:18 | 41.79985 | -50.70386 | 36775 ft | 609 kts | 66° |
| 2026-05-04 22:19 | 41.83017 | -50.59861 | 36775 ft | 609 kts | 66° |
| 2026-05-04 22:19 | 41.86062 | -50.49250 | 36777 ft | 610 kts | 66° |
| 2026-05-04 22:20 | 41.89101 | -50.38612 | 36775 ft | 611 kts | 66° |
| 2026-05-04 22:20 | 41.92128 | -50.27958 | 36774 ft | 611 kts | 66° |
| 2026-05-04 22:21 | 41.95148 | -50.17288 | 36775 ft | 611 kts | 66° |
| 2026-05-04 22:21 | 41.98160 | -50.06598 | 36777 ft | 612 kts | 66° |
| 2026-05-04 22:22 | 42.01156 | -49.95864 | 36775 ft | 613 kts | 68° |
| 2026-05-04 22:22 | 42.03894 | -49.84995 | 36777 ft | 614 kts | 70° |
| 2026-05-04 22:23 | 42.06527 | -49.74071 | 36778 ft | 614 kts | 70° |
| 2026-05-04 22:23 | 42.09184 | -49.63162 | 36774 ft | 613 kts | 69° |
| 2026-05-04 22:24 | 42.11869 | -49.52266 | 36777 ft | 612 kts | 69° |
| 2026-05-04 22:24 | 42.14543 | -49.41395 | 36774 ft | 611 kts | 70° |
| 2026-05-04 22:25 | 42.17203 | -49.30523 | 36776 ft | 610 kts | 70° |
| 2026-05-04 22:25 | 42.19843 | -49.19675 | 36776 ft | 609 kts | 70° |
| 2026-05-04 22:26 | 42.22466 | -49.08846 | 36777 ft | 606 kts | 70° |
| 2026-05-04 22:26 | 42.25070 | -48.98028 | 36777 ft | 606 kts | 70° |
| 2026-05-04 22:27 | 42.27661 | -48.87221 | 36785 ft | 604 kts | 70° |
| 2026-05-04 22:27 | 42.30232 | -48.76431 | 36786 ft | 603 kts | 70° |
| 2026-05-04 22:28 | 42.32779 | -48.65717 | 36785 ft | 603 kts | 70° |
| 2026-05-04 22:28 | 42.35330 | -48.54927 | 36786 ft | 602 kts | 70° |
| 2026-05-04 22:29 | 42.37865 | -48.44147 | 36786 ft | 602 kts | 71° |
| 2026-05-04 22:29 | 42.40392 | -48.33347 | 36787 ft | 602 kts | 71° |
| 2026-05-04 22:30 | 42.42911 | -48.22542 | 36787 ft | 601 kts | 70° |
| 2026-05-04 22:30 | 42.45418 | -48.11742 | 36795 ft | 602 kts | 71° |
| 2026-05-04 22:31 | 42.47915 | -48.00925 | 36794 ft | 602 kts | 71° |
| 2026-05-04 22:31 | 42.50398 | -47.90114 | 36795 ft | 600 kts | 71° |
| 2026-05-04 22:32 | 42.52865 | -47.79315 | 36795 ft | 599 kts | 71° |
| 2026-05-04 22:32 | 42.55315 | -47.68542 | 36795 ft | 598 kts | 71° |
| 2026-05-04 22:33 | 42.57751 | -47.57763 | 36803 ft | 597 kts | 71° |
| 2026-05-04 22:33 | 42.60175 | -47.46999 | 36802 ft | 596 kts | 71° |
| 2026-05-04 22:34 | 42.62589 | -47.36229 | 36805 ft | 595 kts | 72° |
| 2026-05-04 22:34 | 42.64985 | -47.25478 | 36802 ft | 594 kts | 72° |
| 2026-05-04 22:35 | 42.67351 | -47.14809 | 36809 ft | 593 kts | 72° |
| 2026-05-04 22:35 | 42.69719 | -47.04079 | 36811 ft | 592 kts | 72° |
| 2026-05-04 22:36 | 42.72079 | -46.93349 | 36812 ft | 592 kts | 72° |
| 2026-05-04 22:36 | 42.74423 | -46.82644 | 36813 ft | 590 kts | 72° |
| 2026-05-04 22:37 | 42.76748 | -46.71930 | 36827 ft | 590 kts | 72° |
| 2026-05-04 22:37 | 42.79059 | -46.61232 | 36815 ft | 589 kts | 72° |
| 2026-05-04 22:38 | 42.81364 | -46.50520 | 36823 ft | 589 kts | 72° |
| 2026-05-04 22:38 | 42.83659 | -46.39815 | 36822 ft | 589 kts | 72° |
| 2026-05-04 22:39 | 42.85938 | -46.29110 | 36829 ft | 588 kts | 72° |
| 2026-05-04 22:39 | 42.88210 | -46.18390 | 36834 ft | 588 kts | 72° |
| 2026-05-04 22:40 | 42.90472 | -46.07677 | 36828 ft | 587 kts | 73° |
| 2026-05-04 22:40 | 42.92715 | -45.96983 | 36838 ft | 587 kts | 73° |
| 2026-05-04 22:41 | 42.94945 | -45.86297 | 36837 ft | 584 kts | 73° |
| 2026-05-04 22:41 | 42.97156 | -45.75654 | 36844 ft | 582 kts | 73° |
| 2026-05-04 22:42 | 42.99359 | -45.65006 | 36846 ft | 582 kts | 73° |
| 2026-05-04 22:42 | 43.01547 | -45.54365 | 36852 ft | 581 kts | 73° |
| 2026-05-04 22:43 | 43.03717 | -45.43753 | 36849 ft | 580 kts | 73° |
| 2026-05-04 22:43 | 43.05871 | -45.33143 | 36857 ft | 580 kts | 73° |
| 2026-05-04 22:44 | 43.08019 | -45.22523 | 36867 ft | 579 kts | 73° |
| 2026-05-04 22:44 | 43.10156 | -45.11908 | 36869 ft | 578 kts | 73° |
| 2026-05-04 22:45 | 43.12279 | -45.01296 | 36870 ft | 577 kts | 73° |
| 2026-05-04 22:45 | 43.15436 | -44.85406 | 36880 ft | 576 kts | 73° |
| 2026-05-04 22:46 | 43.17524 | -44.74829 | 36880 ft | 575 kts | 73° |
| 2026-05-04 22:46 | 43.19601 | -44.64269 | 36887 ft | 574 kts | 73° |
| 2026-05-04 22:47 | 43.21664 | -44.53712 | 36889 ft | 573 kts | 74° |
| 2026-05-04 22:47 | 43.23698 | -44.43230 | 36889 ft | 572 kts | 74° |
| 2026-05-04 22:48 | 43.25737 | -44.32695 | 36896 ft | 571 kts | 74° |
| 2026-05-04 22:48 | 43.27767 | -44.22159 | 36894 ft | 571 kts | 74° |
| 2026-05-04 22:49 | 43.29777 | -44.11630 | 36913 ft | 570 kts | 74° |
| 2026-05-04 22:49 | 43.31778 | -44.01104 | 36907 ft | 569 kts | 74° |
| 2026-05-04 22:50 | 43.33767 | -43.90588 | 36908 ft | 567 kts | 74° |
| 2026-05-04 22:50 | 43.35737 | -43.80128 | 36921 ft | 564 kts | 74° |
| 2026-05-04 22:51 | 43.37687 | -43.69702 | 36927 ft | 563 kts | 74° |
| 2026-05-04 22:51 | 43.39632 | -43.59270 | 36924 ft | 563 kts | 74° |
| 2026-05-04 22:52 | 43.41560 | -43.48845 | 36929 ft | 562 kts | 75° |
| 2026-05-04 22:52 | 43.43470 | -43.38441 | 36934 ft | 560 kts | 75° |
| 2026-05-04 22:53 | 43.45371 | -43.28054 | 36933 ft | 559 kts | 75° |
| 2026-05-04 22:53 | 43.47260 | -43.17677 | 36943 ft | 558 kts | 75° |
| 2026-05-04 22:54 | 43.49129 | -43.07345 | 36944 ft | 556 kts | 75° |
| 2026-05-04 22:54 | 43.50984 | -42.97026 | 36953 ft | 554 kts | 75° |
| 2026-05-04 22:55 | 43.52822 | -42.86734 | 36953 ft | 552 kts | 75° |
| 2026-05-04 22:55 | 43.54649 | -42.76474 | 36960 ft | 549 kts | 75° |
| 2026-05-04 22:56 | 43.56456 | -42.66283 | 36962 ft | 546 kts | 76° |
| 2026-05-04 22:56 | 43.58233 | -42.56186 | 36968 ft | 544 kts | 76° |
| 2026-05-04 22:57 | 43.60001 | -42.46060 | 36971 ft | 542 kts | 76° |
| 2026-05-04 22:57 | 43.61756 | -42.35985 | 36974 ft | 538 kts | 76° |
| 2026-05-04 22:58 | 43.63490 | -42.25948 | 36980 ft | 536 kts | 77° |
| 2026-05-04 22:58 | 43.65208 | -42.15951 | 36983 ft | 534 kts | 77° |
| 2026-05-04 22:59 | 43.66914 | -42.05988 | 36989 ft | 532 kts | 77° |
| 2026-05-04 22:59 | 43.68609 | -41.96041 | 36990 ft | 532 kts | 77° |
| 2026-05-04 23:00 | 43.70291 | -41.86100 | 36999 ft | 530 kts | 77° |
| 2026-05-04 23:00 | 43.71958 | -41.76170 | 36998 ft | 530 kts | 77° |
| 2026-05-04 23:01 | 43.73618 | -41.66237 | 37008 ft | 531 kts | 77° |
| 2026-05-04 23:01 | 43.75273 | -41.56288 | 37008 ft | 532 kts | 77° |
| 2026-05-04 23:02 | 43.76920 | -41.46310 | 37018 ft | 532 kts | 77° |
| 2026-05-04 23:02 | 43.78288 | -41.38016 | 37017 ft | 532 kts | 77° |
| 2026-05-04 23:03 | 43.79921 | -41.28020 | 37023 ft | 533 kts | 77° |
| 2026-05-04 23:03 | 43.81548 | -41.18014 | 37027 ft | 533 kts | 76° |
| 2026-05-04 23:04 | 43.83166 | -41.08004 | 37031 ft | 533 kts | 76° |
| 2026-05-04 23:04 | 43.84776 | -40.97980 | 37033 ft | 533 kts | 76° |
| 2026-05-04 23:05 | 43.86378 | -40.87944 | 37045 ft | 533 kts | 76° |
| 2026-05-04 23:05 | 43.87968 | -40.77918 | 37043 ft | 532 kts | 76° |
| 2026-05-04 23:06 | 43.89546 | -40.67912 | 37049 ft | 532 kts | 76° |
| 2026-05-04 23:06 | 43.91118 | -40.57891 | 37054 ft | 531 kts | 76° |
| 2026-05-04 23:07 | 43.92678 | -40.47897 | 37056 ft | 531 kts | 76° |
| 2026-05-04 23:07 | 43.94225 | -40.37898 | 37062 ft | 529 kts | 76° |
| 2026-05-04 23:08 | 43.95761 | -40.27924 | 37063 ft | 529 kts | 76° |
| 2026-05-04 23:08 | 43.97286 | -40.17948 | 37072 ft | 528 kts | 76° |
| 2026-05-04 23:09 | 43.98801 | -40.07988 | 37073 ft | 527 kts | 76° |
| 2026-05-04 23:09 | 44.00537 | -39.98135 | 37083 ft | 524 kts | 69° |
| 2026-05-04 23:10 | 44.02838 | -39.88607 | 37082 ft | 524 kts | 68° |
| 2026-05-04 23:10 | 44.05241 | -39.79048 | 37081 ft | 524 kts | 68° |
| 2026-05-04 23:11 | 44.07638 | -39.69492 | 37098 ft | 524 kts | 68° |
| 2026-05-04 23:11 | 44.10017 | -39.59918 | 37087 ft | 523 kts | 68° |
| 2026-05-04 23:12 | 44.12380 | -39.50355 | 37107 ft | 522 kts | 68° |
| 2026-05-04 23:12 | 44.14736 | -39.40785 | 37097 ft | 522 kts | 68° |
| 2026-05-04 23:13 | 44.17074 | -39.31238 | 37103 ft | 521 kts | 68° |
| 2026-05-04 23:13 | 44.19403 | -39.21683 | 37118 ft | 520 kts | 68° |
| 2026-05-04 23:14 | 44.21718 | -39.12149 | 37123 ft | 519 kts | 68° |
| 2026-05-04 23:14 | 44.24020 | -39.02624 | 37126 ft | 517 kts | 68° |
| 2026-05-04 23:15 | 44.26304 | -38.93128 | 37128 ft | 516 kts | 68° |
| 2026-05-04 23:15 | 44.28581 | -38.83632 | 37129 ft | 515 kts | 68° |
| 2026-05-04 23:16 | 44.30846 | -38.74164 | 37136 ft | 515 kts | 68° |
| 2026-05-04 23:16 | 44.33099 | -38.64698 | 37138 ft | 513 kts | 68° |
| 2026-05-04 23:17 | 44.35340 | -38.55230 | 37138 ft | 512 kts | 68° |
| 2026-05-04 23:17 | 44.37567 | -38.45781 | 37147 ft | 512 kts | 68° |
| 2026-05-04 23:18 | 44.39790 | -38.36321 | 37146 ft | 511 kts | 68° |
| 2026-05-04 23:18 | 44.41998 | -38.26869 | 37146 ft | 511 kts | 68° |
| 2026-05-04 23:19 | 44.44184 | -38.17478 | 37156 ft | 511 kts | 68° |
| 2026-05-04 23:19 | 44.46379 | -38.08016 | 37156 ft | 511 kts | 68° |
| 2026-05-04 23:20 | 44.48559 | -37.98568 | 37156 ft | 511 kts | 68° |
| 2026-05-04 23:20 | 44.50732 | -37.89099 | 37160 ft | 510 kts | 68° |
| 2026-05-04 23:21 | 44.52893 | -37.79662 | 37160 ft | 509 kts | 68° |
| 2026-05-04 23:21 | 44.55044 | -37.70217 | 37159 ft | 509 kts | 68° |
| 2026-05-04 23:22 | 44.57189 | -37.60767 | 37170 ft | 508 kts | 68° |
| 2026-05-04 23:22 | 44.59321 | -37.51321 | 37180 ft | 507 kts | 68° |
| 2026-05-04 23:23 | 44.61444 | -37.41887 | 37170 ft | 507 kts | 68° |
| 2026-05-04 23:23 | 44.63554 | -37.32451 | 37176 ft | 506 kts | 68° |
| 2026-05-04 23:24 | 44.65652 | -37.23024 | 37189 ft | 506 kts | 68° |
| 2026-05-04 23:24 | 44.67744 | -37.13597 | 37180 ft | 505 kts | 68° |
| 2026-05-04 23:25 | 44.69826 | -37.04171 | 37181 ft | 504 kts | 68° |
| 2026-05-04 23:25 | 44.71894 | -36.94761 | 37188 ft | 504 kts | 68° |
| 2026-05-04 23:26 | 44.73958 | -36.85349 | 37185 ft | 503 kts | 68° |
| 2026-05-04 23:26 | 44.75998 | -36.75999 | 37177 ft | 503 kts | 68° |
| 2026-05-04 23:27 | 44.78040 | -36.66592 | 37193 ft | 502 kts | 68° |
| 2026-05-04 23:27 | 44.80063 | -36.57206 | 37193 ft | 501 kts | 68° |
| 2026-05-04 23:28 | 44.82083 | -36.47810 | 37193 ft | 500 kts | 68° |
| 2026-05-04 23:28 | 44.84090 | -36.38431 | 37193 ft | 500 kts | 68° |
| 2026-05-04 23:29 | 44.86093 | -36.29041 | 37200 ft | 500 kts | 68° |
| 2026-05-04 23:29 | 44.88085 | -36.19648 | 37203 ft | 500 kts | 68° |
| 2026-05-04 23:30 | 44.90070 | -36.10245 | 37200 ft | 500 kts | 68° |
| 2026-05-04 23:30 | 44.92045 | -36.00854 | 37201 ft | 500 kts | 68° |
| 2026-05-04 23:31 | 44.94012 | -35.91455 | 37203 ft | 498 kts | 67° |
| 2026-05-04 23:31 | 44.95953 | -35.82122 | 37209 ft | 494 kts | 67° |
| 2026-05-04 23:32 | 44.97883 | -35.72827 | 37211 ft | 493 kts | 67° |
| 2026-05-04 23:32 | 44.99803 | -35.63533 | 37211 ft | 492 kts | 67° |
| 2026-05-04 23:33 | 45.01710 | -35.54243 | 37211 ft | 492 kts | 67° |
| 2026-05-04 23:33 | 45.03607 | -35.44966 | 37210 ft | 492 kts | 68° |
| 2026-05-04 23:34 | 45.05500 | -35.35660 | 37218 ft | 491 kts | 68° |
| 2026-05-04 23:34 | 45.07379 | -35.26386 | 37220 ft | 490 kts | 68° |
| 2026-05-04 23:35 | 45.09247 | -35.17116 | 37220 ft | 489 kts | 68° |
| 2026-05-04 23:35 | 45.11105 | -35.07864 | 37219 ft | 488 kts | 67° |
| 2026-05-04 23:36 | 45.12952 | -34.98625 | 37221 ft | 488 kts | 68° |
| 2026-05-04 23:36 | 45.14779 | -34.89440 | 37226 ft | 487 kts | 68° |
| 2026-05-04 23:37 | 45.16613 | -34.80164 | 37233 ft | 486 kts | 68° |
| 2026-05-04 23:37 | 45.18416 | -34.71016 | 37226 ft | 485 kts | 68° |
| 2026-05-04 23:38 | 45.20219 | -34.61814 | 37227 ft | 484 kts | 68° |
| 2026-05-04 23:38 | 45.22010 | -34.52620 | 37228 ft | 483 kts | 68° |
| 2026-05-04 23:39 | 45.23792 | -34.43448 | 37225 ft | 482 kts | 68° |
| 2026-05-04 23:39 | 45.25569 | -34.34281 | 37228 ft | 481 kts | 68° |
| 2026-05-04 23:40 | 45.27332 | -34.25121 | 37236 ft | 481 kts | 68° |
| 2026-05-04 23:40 | 45.29083 | -34.15959 | 37235 ft | 481 kts | 68° |
| 2026-05-04 23:41 | 45.30827 | -34.06799 | 37240 ft | 480 kts | 68° |
| 2026-05-04 23:41 | 45.32561 | -33.97641 | 37241 ft | 480 kts | 68° |
| 2026-05-04 23:42 | 45.34284 | -33.88502 | 37234 ft | 477 kts | 68° |
| 2026-05-04 23:42 | 45.35998 | -33.79394 | 37236 ft | 476 kts | 68° |
| 2026-05-04 23:43 | 45.37698 | -33.70302 | 37237 ft | 476 kts | 68° |
| 2026-05-04 23:43 | 45.39390 | -33.61207 | 37238 ft | 476 kts | 68° |
| 2026-05-04 23:44 | 45.41077 | -33.52102 | 37247 ft | 476 kts | 68° |
| 2026-05-04 23:44 | 45.42755 | -33.42983 | 37247 ft | 475 kts | 68° |
| 2026-05-04 23:45 | 45.44411 | -33.33945 | 37248 ft | 475 kts | 68° |
| 2026-05-04 23:45 | 45.46074 | -33.24830 | 37248 ft | 476 kts | 68° |
| 2026-05-04 23:46 | 45.47728 | -33.15710 | 37248 ft | 474 kts | 68° |
| 2026-05-04 23:46 | 45.49372 | -33.06611 | 37248 ft | 474 kts | 68° |
| 2026-05-04 23:47 | 45.51008 | -32.97498 | 37248 ft | 474 kts | 68° |
| 2026-05-04 23:47 | 45.52641 | -32.88375 | 37248 ft | 475 kts | 68° |
| 2026-05-04 23:48 | 45.54261 | -32.79260 | 37247 ft | 474 kts | 68° |
| 2026-05-04 23:48 | 45.55873 | -32.70136 | 37248 ft | 474 kts | 68° |
| 2026-05-04 23:49 | 45.57478 | -32.61022 | 37269 ft | 474 kts | 68° |
| 2026-05-04 23:49 | 45.59077 | -32.51906 | 37339 ft | 473 kts | 68° |
| 2026-05-04 23:50 | 45.60664 | -32.42796 | 37340 ft | 473 kts | 68° |
| 2026-05-04 23:50 | 45.62246 | -32.33681 | 37339 ft | 473 kts | 68° |
| 2026-05-04 23:51 | 45.63553 | -32.26105 | 37340 ft | 473 kts | 68° |
| 2026-05-04 23:51 | 45.65119 | -32.16979 | 37341 ft | 473 kts | 68° |
| 2026-05-04 23:52 | 45.66680 | -32.07845 | 37339 ft | 473 kts | 68° |
| 2026-05-04 23:52 | 45.68234 | -31.98719 | 37339 ft | 473 kts | 68° |
| 2026-05-04 23:53 | 45.69781 | -31.89564 | 37339 ft | 473 kts | 68° |
| 2026-05-04 23:53 | 45.71319 | -31.80411 | 37372 ft | 473 kts | 69° |
| 2026-05-04 23:54 | 45.72850 | -31.71260 | 37374 ft | 473 kts | 69° |
| 2026-05-04 23:54 | 45.74375 | -31.62098 | 37360 ft | 473 kts | 69° |
| 2026-05-04 23:55 | 45.75894 | -31.52923 | 37377 ft | 474 kts | 69° |
| 2026-05-04 23:56 | 45.78146 | -31.39223 | 37365 ft | 473 kts | 69° |
| 2026-05-04 23:56 | 45.79655 | -31.29976 | 37362 ft | 474 kts | 69° |
| 2026-05-04 23:57 | 45.81138 | -31.20846 | 37368 ft | 474 kts | 69° |
| 2026-05-04 23:57 | 45.82625 | -31.11646 | 37373 ft | 474 kts | 69° |
| 2026-05-04 23:58 | 45.84108 | -31.02419 | 37358 ft | 475 kts | 70° |
| 2026-05-04 23:58 | 45.85585 | -30.93175 | 37351 ft | 475 kts | 70° |
| 2026-05-04 23:59 | 45.87055 | -30.83926 | 37352 ft | 475 kts | 70° |
| 2026-05-04 23:59 | 45.88511 | -30.74681 | 37357 ft | 476 kts | 70° |
| 2026-05-05 00:00 | 45.89970 | -30.65405 | 37351 ft | 477 kts | 70° |
| 2026-05-05 00:00 | 45.91422 | -30.56120 | 37366 ft | 477 kts | 70° |
| 2026-05-05 00:01 | 45.92867 | -30.46829 | 37366 ft | 477 kts | 70° |
| 2026-05-05 00:01 | 45.94304 | -30.37515 | 37352 ft | 478 kts | 70° |
| 2026-05-05 00:02 | 45.95734 | -30.28182 | 37362 ft | 478 kts | 71° |
| 2026-05-05 00:02 | 45.97160 | -30.18848 | 37361 ft | 478 kts | 71° |
| 2026-05-05 00:03 | 45.98575 | -30.09514 | 37361 ft | 478 kts | 71° |
| 2026-05-05 00:03 | 46.00072 | -30.00225 | 37357 ft | 473 kts | 65° |
| 2026-05-05 00:04 | 46.02182 | -29.91295 | 37371 ft | 470 kts | 63° |
| 2026-05-05 00:04 | 46.04399 | -29.82441 | 37350 ft | 470 kts | 63° |
| 2026-05-05 00:05 | 46.06627 | -29.73595 | 37359 ft | 470 kts | 63° |
| 2026-05-05 00:05 | 46.08832 | -29.64774 | 37367 ft | 471 kts | 63° |
| 2026-05-05 00:06 | 46.11039 | -29.55881 | 37363 ft | 472 kts | 64° |
| 2026-05-05 00:06 | 46.13248 | -29.46960 | 37369 ft | 473 kts | 64° |
| 2026-05-05 00:07 | 46.15443 | -29.38023 | 37366 ft | 473 kts | 64° |
| 2026-05-05 00:07 | 46.17639 | -29.29058 | 37353 ft | 474 kts | 64° |
| 2026-05-05 00:08 | 46.19830 | -29.20083 | 37364 ft | 474 kts | 65° |
| 2026-05-05 00:08 | 46.22017 | -29.11085 | 37362 ft | 476 kts | 65° |
| 2026-05-05 00:09 | 46.24202 | -29.02061 | 37378 ft | 476 kts | 65° |
| 2026-05-05 00:09 | 46.26378 | -28.93031 | 37374 ft | 476 kts | 66° |
| 2026-05-05 00:10 | 46.28554 | -28.83970 | 37371 ft | 476 kts | 66° |
| 2026-05-05 00:10 | 46.30721 | -28.74908 | 37375 ft | 477 kts | 66° |
| 2026-05-05 00:11 | 46.32882 | -28.65839 | 37372 ft | 478 kts | 66° |
| 2026-05-05 00:11 | 46.35037 | -28.56747 | 37374 ft | 478 kts | 67° |
| 2026-05-05 00:12 | 46.37192 | -28.47635 | 37382 ft | 478 kts | 67° |
| 2026-05-05 00:12 | 46.39338 | -28.38522 | 37369 ft | 478 kts | 67° |
| 2026-05-05 00:13 | 46.41473 | -28.29418 | 37374 ft | 478 kts | 67° |
| 2026-05-05 00:13 | 46.43590 | -28.20346 | 37383 ft | 478 kts | 67° |
| 2026-05-05 00:14 | 46.45713 | -28.11213 | 37369 ft | 478 kts | 68° |
| 2026-05-05 00:14 | 46.47824 | -28.02071 | 37384 ft | 480 kts | 66° |
| 2026-05-05 00:15 | 46.49950 | -27.92867 | 37381 ft | 482 kts | 67° |
| 2026-05-05 00:15 | 46.52068 | -27.83625 | 37384 ft | 483 kts | 67° |
| 2026-05-05 00:16 | 46.54175 | -27.74373 | 37376 ft | 483 kts | 67° |
| 2026-05-05 00:16 | 46.56283 | -27.65106 | 37368 ft | 483 kts | 67° |
| 2026-05-05 00:17 | 46.58387 | -27.55833 | 37374 ft | 483 kts | 68° |
| 2026-05-05 00:17 | 46.60481 | -27.46541 | 37380 ft | 484 kts | 68° |
| 2026-05-05 00:18 | 46.62567 | -27.37243 | 37381 ft | 484 kts | 68° |
| 2026-05-05 00:18 | 46.64649 | -27.27933 | 37382 ft | 484 kts | 68° |
| 2026-05-05 00:19 | 46.66724 | -27.18610 | 37384 ft | 484 kts | 68° |
| 2026-05-05 00:19 | 46.68794 | -27.09275 | 37369 ft | 485 kts | 68° |
| 2026-05-05 00:20 | 46.70854 | -26.99927 | 37353 ft | 485 kts | 68° |
| 2026-05-05 00:20 | 46.72906 | -26.90579 | 37351 ft | 485 kts | 69° |
| 2026-05-05 00:21 | 46.74956 | -26.81214 | 37351 ft | 485 kts | 69° |
| 2026-05-05 00:21 | 46.76993 | -26.71856 | 37361 ft | 484 kts | 69° |
| 2026-05-05 00:22 | 46.79025 | -26.62479 | 37362 ft | 485 kts | 69° |
| 2026-05-05 00:22 | 46.81047 | -26.53098 | 37357 ft | 485 kts | 69° |
| 2026-05-05 00:23 | 46.83063 | -26.43700 | 37360 ft | 485 kts | 69° |
| 2026-05-05 00:23 | 46.85074 | -26.34291 | 37357 ft | 485 kts | 69° |
| 2026-05-05 00:24 | 46.87075 | -26.24888 | 37363 ft | 485 kts | 69° |
| 2026-05-05 00:24 | 46.89064 | -26.15479 | 37364 ft | 485 kts | 69° |
| 2026-05-05 00:25 | 46.91049 | -26.06064 | 37348 ft | 485 kts | 69° |
| 2026-05-05 00:25 | 46.93030 | -25.96634 | 37351 ft | 485 kts | 70° |
| 2026-05-05 00:26 | 46.95000 | -25.87199 | 37362 ft | 484 kts | 70° |
| 2026-05-05 00:26 | 46.96957 | -25.77782 | 37361 ft | 484 kts | 70° |
| 2026-05-05 00:27 | 46.98896 | -25.68414 | 37351 ft | 484 kts | 70° |
| 2026-05-05 00:27 | 47.00837 | -25.58993 | 37348 ft | 483 kts | 70° |
| 2026-05-05 00:28 | 47.02772 | -25.49554 | 37349 ft | 483 kts | 70° |
| 2026-05-05 00:28 | 47.04694 | -25.40127 | 37347 ft | 483 kts | 70° |
| 2026-05-05 00:29 | 47.06613 | -25.30669 | 37349 ft | 483 kts | 70° |
| 2026-05-05 00:29 | 47.08519 | -25.21235 | 37347 ft | 483 kts | 70° |
| 2026-05-05 00:30 | 47.10421 | -25.11785 | 37349 ft | 483 kts | 71° |
| 2026-05-05 00:30 | 47.12311 | -25.02336 | 37330 ft | 482 kts | 71° |
| 2026-05-05 00:31 | 47.14191 | -24.92892 | 37320 ft | 482 kts | 71° |
| 2026-05-05 00:31 | 47.16063 | -24.83443 | 37275 ft | 482 kts | 71° |
| 2026-05-05 00:32 | 47.17930 | -24.73973 | 37275 ft | 482 kts | 71° |
| 2026-05-05 00:32 | 47.19784 | -24.64522 | 37275 ft | 481 kts | 71° |
| 2026-05-05 00:33 | 47.21631 | -24.55065 | 37275 ft | 481 kts | 71° |
| 2026-05-05 00:33 | 47.23471 | -24.45610 | 37275 ft | 480 kts | 71° |
| 2026-05-05 00:34 | 47.25299 | -24.36160 | 37275 ft | 481 kts | 71° |
| 2026-05-05 00:34 | 47.27123 | -24.26682 | 37275 ft | 481 kts | 71° |
| 2026-05-05 00:35 | 47.28940 | -24.17204 | 37269 ft | 481 kts | 71° |
| 2026-05-05 00:35 | 47.30745 | -24.07724 | 37266 ft | 481 kts | 71° |
| 2026-05-05 00:36 | 47.32542 | -23.98224 | 37254 ft | 481 kts | 71° |
| 2026-05-05 00:36 | 47.34329 | -23.88743 | 37247 ft | 480 kts | 71° |
| 2026-05-05 00:37 | 47.36099 | -23.79318 | 37248 ft | 479 kts | 71° |
| 2026-05-05 00:37 | 47.37872 | -23.69838 | 37239 ft | 480 kts | 72° |
| 2026-05-05 00:38 | 47.39633 | -23.60349 | 37235 ft | 480 kts | 72° |
| 2026-05-05 00:38 | 47.41387 | -23.50854 | 37235 ft | 479 kts | 72° |
| 2026-05-05 00:39 | 47.43132 | -23.41358 | 37236 ft | 479 kts | 72° |
| 2026-05-05 00:39 | 47.44869 | -23.31865 | 37241 ft | 478 kts | 72° |
| 2026-05-05 00:40 | 47.46318 | -23.23904 | 37241 ft | 478 kts | 72° |
| 2026-05-05 00:40 | 47.48035 | -23.14431 | 37242 ft | 478 kts | 72° |
| 2026-05-05 00:41 | 47.49745 | -23.04938 | 37240 ft | 477 kts | 72° |
| 2026-05-05 00:41 | 47.51437 | -22.95504 | 37228 ft | 477 kts | 72° |
| 2026-05-05 00:42 | 47.53140 | -22.85959 | 37232 ft | 477 kts | 72° |
| 2026-05-05 00:42 | 47.54811 | -22.76541 | 37229 ft | 476 kts | 72° |
| 2026-05-05 00:43 | 47.56483 | -22.67074 | 37229 ft | 475 kts | 72° |
| 2026-05-05 00:43 | 47.58148 | -22.57587 | 37229 ft | 475 kts | 72° |
| 2026-05-05 00:44 | 47.59801 | -22.48115 | 37217 ft | 475 kts | 72° |
| 2026-05-05 00:44 | 47.61451 | -22.38636 | 37220 ft | 475 kts | 72° |
| 2026-05-05 00:45 | 47.63087 | -22.29159 | 37222 ft | 474 kts | 72° |
| 2026-05-05 00:45 | 47.64714 | -22.19684 | 37221 ft | 474 kts | 72° |
| 2026-05-05 00:46 | 47.66335 | -22.10206 | 37222 ft | 474 kts | 73° |
| 2026-05-05 00:46 | 47.67947 | -22.00713 | 37222 ft | 474 kts | 73° |
| 2026-05-05 00:47 | 47.69552 | -21.91226 | 37217 ft | 475 kts | 73° |
| 2026-05-05 00:47 | 47.71150 | -21.81719 | 37211 ft | 474 kts | 73° |
| 2026-05-05 00:48 | 47.72738 | -21.72208 | 37211 ft | 474 kts | 73° |
| 2026-05-05 00:48 | 47.74318 | -21.62700 | 37212 ft | 474 kts | 73° |
| 2026-05-05 00:49 | 47.75892 | -21.53184 | 37211 ft | 474 kts | 73° |
| 2026-05-05 00:49 | 47.77446 | -21.43725 | 37210 ft | 474 kts | 73° |
| 2026-05-05 00:50 | 47.79005 | -21.34195 | 37211 ft | 474 kts | 73° |
| 2026-05-05 00:50 | 47.80553 | -21.24667 | 37210 ft | 474 kts | 73° |
| 2026-05-05 00:51 | 47.82094 | -21.15131 | 37211 ft | 474 kts | 73° |
| 2026-05-05 00:51 | 47.83630 | -21.05565 | 37202 ft | 475 kts | 74° |
| 2026-05-05 00:52 | 47.85156 | -20.96020 | 37201 ft | 475 kts | 74° |
| 2026-05-05 00:52 | 47.86679 | -20.86440 | 37201 ft | 475 kts | 74° |
| 2026-05-05 00:53 | 47.88192 | -20.76865 | 37202 ft | 475 kts | 74° |
| 2026-05-05 00:53 | 47.89694 | -20.67280 | 37203 ft | 475 kts | 75° |
| 2026-05-05 00:54 | 47.91190 | -20.57687 | 37202 ft | 476 kts | 74° |
| 2026-05-05 00:54 | 47.92684 | -20.48071 | 37203 ft | 476 kts | 75° |
| 2026-05-05 00:55 | 47.94168 | -20.38459 | 37203 ft | 475 kts | 75° |
| 2026-05-05 00:55 | 47.95645 | -20.28835 | 37196 ft | 476 kts | 75° |
| 2026-05-05 00:56 | 47.97112 | -20.19202 | 37192 ft | 476 kts | 75° |
| 2026-05-05 00:56 | 47.98573 | -20.09569 | 37192 ft | 476 kts | 75° |
| 2026-05-05 00:57 | 47.99872 | -19.99869 | 37196 ft | 478 kts | 82° |
| 2026-05-05 00:57 | 48.00259 | -19.89943 | 37191 ft | 479 kts | 86° |
| 2026-05-05 00:58 | 48.00463 | -19.79989 | 37192 ft | 480 kts | 86° |
| 2026-05-05 00:58 | 48.00632 | -19.70031 | 37193 ft | 479 kts | 86° |
| 2026-05-05 00:59 | 48.00804 | -19.60079 | 37193 ft | 479 kts | 86° |
| 2026-05-05 00:59 | 48.00980 | -19.50145 | 37193 ft | 479 kts | 86° |
| 2026-05-05 01:00 | 48.01151 | -19.40199 | 37182 ft | 479 kts | 86° |
| 2026-05-05 01:00 | 48.01310 | -19.30255 | 37187 ft | 478 kts | 86° |
| 2026-05-05 01:01 | 48.01458 | -19.20329 | 37182 ft | 479 kts | 86° |
| 2026-05-05 01:01 | 48.01601 | -19.10383 | 37187 ft | 479 kts | 86° |
| 2026-05-05 01:02 | 48.01736 | -19.00457 | 37184 ft | 478 kts | 86° |
| 2026-05-05 01:02 | 48.01861 | -18.90512 | 37166 ft | 479 kts | 86° |
| 2026-05-05 01:03 | 48.01976 | -18.80644 | 37167 ft | 478 kts | 86° |
| 2026-05-05 01:03 | 48.02084 | -18.70728 | 37159 ft | 477 kts | 87° |
| 2026-05-05 01:04 | 48.02184 | -18.60813 | 37166 ft | 478 kts | 87° |
| 2026-05-05 01:04 | 48.02320 | -18.45949 | 37163 ft | 477 kts | 87° |
| 2026-05-05 01:05 | 48.02401 | -18.36043 | 37167 ft | 477 kts | 87° |
| 2026-05-05 01:05 | 48.02469 | -18.26130 | 37150 ft | 480 kts | 87° |
| 2026-05-05 01:06 | 48.02501 | -18.21119 | 37299 ft | 483 kts | 87° |
| 2026-05-05 01:06 | 48.02530 | -18.16114 | 37585 ft | 482 kts | 87° |
| 2026-05-05 01:06 | 48.02558 | -18.11100 | 37882 ft | 482 kts | 87° |
| 2026-05-05 01:06 | 48.02582 | -18.06096 | 38146 ft | 482 kts | 87° |
| 2026-05-05 01:07 | 48.02606 | -18.01087 | 38376 ft | 483 kts | 87° |
| 2026-05-05 01:07 | 48.02627 | -17.96066 | 38617 ft | 482 kts | 87° |
| 2026-05-05 01:07 | 48.02646 | -17.91061 | 38857 ft | 483 kts | 87° |
| 2026-05-05 01:07 | 48.02662 | -17.86041 | 39082 ft | 483 kts | 87° |
| 2026-05-05 01:08 | 48.02689 | -17.75981 | 39159 ft | 484 kts | 87° |
| 2026-05-05 01:08 | 48.02709 | -17.65909 | 39154 ft | 485 kts | 87° |
| 2026-05-05 01:09 | 48.02718 | -17.55844 | 39155 ft | 484 kts | 87° |
| 2026-05-05 01:09 | 48.02721 | -17.45783 | 39158 ft | 485 kts | 87° |
| 2026-05-05 01:10 | 48.02713 | -17.35697 | 39154 ft | 485 kts | 87° |
| 2026-05-05 01:10 | 48.02695 | -17.25626 | 39160 ft | 485 kts | 87° |
| 2026-05-05 01:11 | 48.02669 | -17.15550 | 39151 ft | 484 kts | 88° |
| 2026-05-05 01:11 | 48.02633 | -17.05496 | 39154 ft | 485 kts | 88° |
| 2026-05-05 01:12 | 48.02586 | -16.95418 | 39152 ft | 485 kts | 88° |
| 2026-05-05 01:12 | 48.02537 | -16.85369 | 39154 ft | 484 kts | 88° |
| 2026-05-05 01:13 | 48.02476 | -16.75314 | 39157 ft | 483 kts | 88° |
| 2026-05-05 01:13 | 48.02406 | -16.65287 | 39145 ft | 483 kts | 88° |
| 2026-05-05 01:14 | 48.02328 | -16.55258 | 39139 ft | 483 kts | 88° |
| 2026-05-05 01:14 | 48.02243 | -16.45224 | 39132 ft | 483 kts | 88° |
| 2026-05-05 01:15 | 48.02152 | -16.35284 | 39137 ft | 482 kts | 88° |
| 2026-05-05 01:15 | 48.02045 | -16.25276 | 39140 ft | 482 kts | 88° |
| 2026-05-05 01:16 | 48.01930 | -16.15264 | 39132 ft | 482 kts | 88° |
| 2026-05-05 01:16 | 48.01810 | -16.05261 | 39134 ft | 482 kts | 88° |
| 2026-05-05 01:17 | 48.01679 | -15.95263 | 39139 ft | 482 kts | 88° |
| 2026-05-05 01:17 | 48.01540 | -15.85252 | 39139 ft | 482 kts | 88° |
| 2026-05-05 01:18 | 48.01394 | -15.75242 | 39128 ft | 482 kts | 88° |
| 2026-05-05 01:18 | 48.01238 | -15.65239 | 39128 ft | 482 kts | 88° |
| 2026-05-05 01:19 | 48.01072 | -15.55237 | 39128 ft | 482 kts | 88° |
| 2026-05-05 01:19 | 48.00899 | -15.45229 | 39128 ft | 482 kts | 88° |
| 2026-05-05 01:20 | 48.00714 | -15.35217 | 39128 ft | 482 kts | 88° |
| 2026-05-05 01:20 | 48.00526 | -15.25204 | 39128 ft | 483 kts | 88° |
| 2026-05-05 01:21 | 48.00327 | -15.15177 | 39128 ft | 483 kts | 89° |
| 2026-05-05 01:21 | 48.00198 | -15.05141 | 39129 ft | 482 kts | 84° |
| 2026-05-05 01:22 | 48.01464 | -14.95445 | 39128 ft | 474 kts | 66° |
| 2026-05-05 01:22 | 48.03968 | -14.86354 | 39130 ft | 473 kts | 63° |
| 2026-05-05 01:23 | 48.06652 | -14.77383 | 39128 ft | 473 kts | 63° |
| 2026-05-05 01:23 | 48.09342 | -14.68389 | 39128 ft | 474 kts | 63° |
| 2026-05-05 01:24 | 48.11986 | -14.59422 | 39110 ft | 474 kts | 63° |
| 2026-05-05 01:24 | 48.14633 | -14.50365 | 39109 ft | 475 kts | 63° |
| 2026-05-05 01:25 | 48.17270 | -14.41293 | 39110 ft | 475 kts | 63° |
| 2026-05-05 01:25 | 48.19898 | -14.32218 | 39109 ft | 475 kts | 63° |
| 2026-05-05 01:26 | 48.22528 | -14.23109 | 39100 ft | 476 kts | 63° |
| 2026-05-05 01:26 | 48.24703 | -14.15551 | 39101 ft | 475 kts | 64° |
| 2026-05-05 01:27 | 48.27318 | -14.06436 | 39100 ft | 475 kts | 64° |
| 2026-05-05 01:27 | 48.29926 | -13.97300 | 39100 ft | 476 kts | 64° |
| 2026-05-05 01:28 | 48.32527 | -13.88161 | 39101 ft | 476 kts | 64° |
| 2026-05-05 01:28 | 48.35120 | -13.79018 | 39101 ft | 476 kts | 64° |
| 2026-05-05 01:29 | 48.37706 | -13.69864 | 39101 ft | 476 kts | 64° |
| 2026-05-05 01:29 | 48.40288 | -13.60687 | 39101 ft | 476 kts | 64° |
| 2026-05-05 01:30 | 48.42857 | -13.51515 | 39100 ft | 476 kts | 64° |
| 2026-05-05 01:30 | 48.45422 | -13.42330 | 39101 ft | 476 kts | 64° |
| 2026-05-05 01:31 | 48.47981 | -13.33130 | 39100 ft | 476 kts | 64° |
| 2026-05-05 01:31 | 48.50532 | -13.23925 | 39101 ft | 476 kts | 65° |
| 2026-05-05 01:32 | 48.53072 | -13.14718 | 39100 ft | 476 kts | 65° |
| 2026-05-05 01:32 | 48.55611 | -13.05480 | 39101 ft | 477 kts | 65° |
| 2026-05-05 01:33 | 48.58144 | -12.96240 | 39100 ft | 476 kts | 65° |
| 2026-05-05 01:33 | 48.60662 | -12.87001 | 39101 ft | 476 kts | 65° |
| 2026-05-05 01:34 | 48.63178 | -12.77741 | 39100 ft | 476 kts | 65° |
| 2026-05-05 01:34 | 48.65669 | -12.68536 | 39101 ft | 477 kts | 65° |
| 2026-05-05 01:35 | 48.68172 | -12.59248 | 39101 ft | 477 kts | 65° |
| 2026-05-05 01:35 | 48.70666 | -12.49956 | 39100 ft | 476 kts | 65° |
| 2026-05-05 01:36 | 48.73152 | -12.40661 | 39101 ft | 477 kts | 66° |
| 2026-05-05 01:36 | 48.75632 | -12.31344 | 39100 ft | 477 kts | 66° |
| 2026-05-05 01:37 | 48.78107 | -12.22016 | 39100 ft | 477 kts | 66° |
| 2026-05-05 01:37 | 48.80579 | -12.12668 | 39101 ft | 477 kts | 66° |
| 2026-05-05 01:38 | 48.83401 | -12.03609 | 39101 ft | 473 kts | 55° |
| 2026-05-05 01:38 | 48.87669 | -11.96133 | 39101 ft | 469 kts | 38° |
| 2026-05-05 01:39 | 48.92871 | -11.90159 | 39102 ft | 469 kts | 34° |
| 2026-05-05 01:39 | 48.98215 | -11.84431 | 39100 ft | 470 kts | 34° |
| 2026-05-05 01:40 | 49.03297 | -11.78198 | 39101 ft | 471 kts | 45° |
| 2026-05-05 01:40 | 49.07061 | -11.70046 | 39101 ft | 474 kts | 63° |
| 2026-05-05 01:41 | 49.09736 | -11.60832 | 39100 ft | 475 kts | 65° |
| 2026-05-05 01:41 | 49.12226 | -11.51470 | 39101 ft | 475 kts | 66° |
| 2026-05-05 01:42 | 49.14684 | -11.42165 | 39100 ft | 476 kts | 66° |
| 2026-05-05 01:42 | 49.17185 | -11.32790 | 39100 ft | 476 kts | 66° |
| 2026-05-05 01:43 | 49.19688 | -11.23430 | 39101 ft | 476 kts | 66° |
| 2026-05-05 01:43 | 49.22186 | -11.14051 | 39093 ft | 476 kts | 66° |
| 2026-05-05 01:44 | 49.24674 | -11.04664 | 39099 ft | 476 kts | 66° |
| 2026-05-05 01:44 | 49.27154 | -10.95261 | 39101 ft | 477 kts | 66° |
| 2026-05-05 01:45 | 49.29627 | -10.85844 | 39100 ft | 476 kts | 66° |
| 2026-05-05 01:45 | 49.32090 | -10.76430 | 39072 ft | 476 kts | 66° |
| 2026-05-05 01:46 | 49.34548 | -10.67005 | 39075 ft | 476 kts | 66° |
| 2026-05-05 01:46 | 49.36996 | -10.57566 | 39073 ft | 476 kts | 66° |
| 2026-05-05 01:47 | 49.39439 | -10.48120 | 39072 ft | 475 kts | 67° |
| 2026-05-05 01:47 | 49.41871 | -10.38673 | 39073 ft | 476 kts | 67° |
| 2026-05-05 01:48 | 49.44296 | -10.29208 | 39072 ft | 476 kts | 67° |
| 2026-05-05 01:48 | 49.46716 | -10.19729 | 39073 ft | 476 kts | 67° |
| 2026-05-05 01:49 | 49.49129 | -10.10243 | 39072 ft | 476 kts | 67° |
| 2026-05-05 01:49 | 49.51528 | -10.00763 | 39073 ft | 476 kts | 67° |
| 2026-05-05 01:50 | 49.53909 | -9.91327 | 39073 ft | 476 kts | 68° |
| 2026-05-05 01:50 | 49.56296 | -9.81817 | 39073 ft | 476 kts | 68° |
| 2026-05-05 01:51 | 49.58674 | -9.72298 | 39073 ft | 476 kts | 68° |
| 2026-05-05 01:51 | 49.61046 | -9.62766 | 39072 ft | 476 kts | 68° |
| 2026-05-05 01:52 | 49.63414 | -9.53214 | 39073 ft | 476 kts | 68° |
| 2026-05-05 01:52 | 49.65769 | -9.43666 | 39072 ft | 476 kts | 68° |
| 2026-05-05 01:53 | 49.68121 | -9.34097 | 39073 ft | 477 kts | 68° |
| 2026-05-05 01:53 | 49.70464 | -9.24525 | 39073 ft | 477 kts | 68° |
| 2026-05-05 01:54 | 49.72804 | -9.14916 | 39072 ft | 477 kts | 68° |
| 2026-05-05 01:54 | 49.75131 | -9.05314 | 39073 ft | 478 kts | 69° |
| 2026-05-05 01:55 | 49.77455 | -8.95691 | 39075 ft | 478 kts | 69° |
| 2026-05-05 01:55 | 49.79773 | -8.86051 | 39077 ft | 478 kts | 69° |
| 2026-05-05 01:56 | 49.82068 | -8.76460 | 39091 ft | 478 kts | 69° |
| 2026-05-05 01:56 | 49.84371 | -8.66795 | 39082 ft | 478 kts | 69° |
| 2026-05-05 01:57 | 49.86668 | -8.57118 | 39081 ft | 479 kts | 69° |
| 2026-05-05 01:57 | 49.88961 | -8.47421 | 39082 ft | 479 kts | 69° |
| 2026-05-05 01:58 | 49.91242 | -8.37720 | 39053 ft | 479 kts | 69° |
| 2026-05-05 01:58 | 49.93516 | -8.28000 | 39036 ft | 479 kts | 70° |
| 2026-05-05 01:59 | 49.95782 | -8.18269 | 39037 ft | 479 kts | 70° |
| 2026-05-05 01:59 | 49.98042 | -8.08529 | 39036 ft | 479 kts | 70° |
| 2026-05-05 02:00 | 50.00146 | -7.98697 | 39040 ft | 479 kts | 75° |
| 2026-05-05 02:00 | 50.01704 | -7.88635 | 39035 ft | 479 kts | 76° |
| 2026-05-05 02:01 | 50.03176 | -7.78516 | 39035 ft | 479 kts | 77° |
| 2026-05-05 02:01 | 50.04628 | -7.68392 | 39035 ft | 479 kts | 77° |
| 2026-05-05 02:02 | 50.06078 | -7.58270 | 39012 ft | 480 kts | 77° |
| 2026-05-05 02:02 | 50.07528 | -7.48128 | 39028 ft | 480 kts | 77° |
| 2026-05-05 02:03 | 50.08971 | -7.37987 | 39026 ft | 480 kts | 77° |
| 2026-05-05 02:03 | 50.10401 | -7.27856 | 39027 ft | 480 kts | 77° |
| 2026-05-05 02:04 | 50.11824 | -7.17691 | 39026 ft | 480 kts | 77° |
| 2026-05-05 02:04 | 50.13240 | -7.07533 | 39026 ft | 480 kts | 77° |
| 2026-05-05 02:05 | 50.14645 | -6.97356 | 39013 ft | 481 kts | 77° |
| 2026-05-05 02:05 | 50.16046 | -6.87153 | 39020 ft | 481 kts | 78° |
| 2026-05-05 02:06 | 50.17435 | -6.76957 | 39022 ft | 481 kts | 78° |
| 2026-05-05 02:06 | 50.18815 | -6.66756 | 39020 ft | 481 kts | 78° |
| 2026-05-05 02:07 | 50.20189 | -6.56526 | 39026 ft | 481 kts | 78° |
| 2026-05-05 02:07 | 50.21555 | -6.46294 | 39009 ft | 481 kts | 78° |
| 2026-05-05 02:08 | 50.22911 | -6.36068 | 39012 ft | 481 kts | 78° |
| 2026-05-05 02:08 | 50.24257 | -6.25826 | 38999 ft | 481 kts | 79° |
| 2026-05-05 02:09 | 50.25595 | -6.15592 | 39009 ft | 481 kts | 79° |
| 2026-05-05 02:09 | 50.26922 | -6.05336 | 39007 ft | 481 kts | 79° |
| 2026-05-05 02:10 | 50.28236 | -5.95148 | 39004 ft | 481 kts | 79° |
| 2026-05-05 02:10 | 50.29548 | -5.84876 | 39015 ft | 482 kts | 79° |
| 2026-05-05 02:11 | 50.30849 | -5.74609 | 39016 ft | 481 kts | 79° |
| 2026-05-05 02:11 | 50.32142 | -5.64341 | 39016 ft | 481 kts | 79° |
| 2026-05-05 02:12 | 50.34061 | -5.48920 | 39002 ft | 481 kts | 79° |
| 2026-05-05 02:13 | 50.35331 | -5.38640 | 39012 ft | 481 kts | 79° |
| 2026-05-05 02:13 | 50.36593 | -5.28346 | 39013 ft | 481 kts | 79° |
| 2026-05-05 02:14 | 50.37846 | -5.18042 | 39010 ft | 481 kts | 79° |
| 2026-05-05 02:14 | 50.39085 | -5.07747 | 39011 ft | 481 kts | 80° |
| 2026-05-05 02:15 | 50.40110 | -4.99190 | 39026 ft | 481 kts | 80° |
| 2026-05-05 02:15 | 50.41339 | -4.88879 | 39021 ft | 482 kts | 80° |
| 2026-05-05 02:16 | 50.42558 | -4.78550 | 39012 ft | 481 kts | 80° |
| 2026-05-05 02:16 | 50.43765 | -4.68234 | 39008 ft | 482 kts | 80° |
| 2026-05-05 02:17 | 50.44965 | -4.57907 | 39008 ft | 481 kts | 80° |
| 2026-05-05 02:17 | 50.46138 | -4.47691 | 39010 ft | 481 kts | 81° |
| 2026-05-05 02:18 | 50.47328 | -4.37245 | 39026 ft | 481 kts | 81° |
| 2026-05-05 02:18 | 50.48498 | -4.26920 | 39027 ft | 481 kts | 81° |
| 2026-05-05 02:19 | 50.49663 | -4.16565 | 39017 ft | 481 kts | 81° |
| 2026-05-05 02:19 | 50.50814 | -4.06228 | 39017 ft | 481 kts | 81° |
| 2026-05-05 02:20 | 50.51956 | -3.95891 | 39016 ft | 481 kts | 81° |
| 2026-05-05 02:20 | 50.53116 | -3.85540 | 39020 ft | 481 kts | 81° |
| 2026-05-05 02:21 | 50.54274 | -3.75199 | 39027 ft | 481 kts | 81° |
| 2026-05-05 02:21 | 50.54848 | -3.70023 | 38853 ft | 481 kts | 81° |
| 2026-05-05 02:21 | 50.55420 | -3.64844 | 38608 ft | 480 kts | 81° |
| 2026-05-05 02:21 | 50.55987 | -3.59672 | 38359 ft | 480 kts | 81° |
| 2026-05-05 02:22 | 50.56481 | -3.55153 | 38019 ft | 476 kts | 81° |
| 2026-05-05 02:22 | 50.56812 | -3.52124 | 37688 ft | 474 kts | 81° |
| 2026-05-05 02:22 | 50.57360 | -3.47091 | 37073 ft | 472 kts | 81° |
| 2026-05-05 02:22 | 50.57933 | -3.41940 | 36437 ft | 471 kts | 81° |
| 2026-05-05 02:23 | 50.58520 | -3.36895 | 35791 ft | 470 kts | 81° |
| 2026-05-05 02:23 | 50.59107 | -3.31917 | 35120 ft | 468 kts | 81° |
| 2026-05-05 02:23 | 50.59710 | -3.26817 | 34561 ft | 464 kts | 81° |
| 2026-05-05 02:23 | 50.60293 | -3.21862 | 34070 ft | 459 kts | 81° |
| 2026-05-05 02:24 | 50.60867 | -3.16940 | 33581 ft | 455 kts | 81° |
| 2026-05-05 02:24 | 50.61421 | -3.12143 | 33091 ft | 451 kts | 81° |
| 2026-05-05 02:24 | 50.61978 | -3.07291 | 32598 ft | 446 kts | 82° |
| 2026-05-05 02:24 | 50.62523 | -3.02505 | 32132 ft | 442 kts | 82° |
| 2026-05-05 02:25 | 50.63062 | -2.97761 | 31641 ft | 438 kts | 82° |
| 2026-05-05 02:25 | 50.63594 | -2.93072 | 31185 ft | 433 kts | 82° |
| 2026-05-05 02:25 | 50.64115 | -2.88432 | 30717 ft | 428 kts | 83° |
| 2026-05-05 02:25 | 50.64625 | -2.83862 | 30244 ft | 424 kts | 83° |
| 2026-05-05 02:26 | 50.65139 | -2.79271 | 29792 ft | 420 kts | 83° |
| 2026-05-05 02:26 | 50.65641 | -2.74760 | 29344 ft | 416 kts | 83° |
| 2026-05-05 02:26 | 50.66136 | -2.70295 | 28890 ft | 412 kts | 83° |
| 2026-05-05 02:26 | 50.66624 | -2.65880 | 28441 ft | 407 kts | 83° |
| 2026-05-05 02:27 | 50.67106 | -2.61503 | 27995 ft | 403 kts | 83° |
| 2026-05-05 02:27 | 50.67581 | -2.57172 | 27556 ft | 400 kts | 83° |
| 2026-05-05 02:27 | 50.68016 | -2.52861 | 27115 ft | 394 kts | 86° |
| 2026-05-05 02:27 | 50.68081 | -2.48594 | 26803 ft | 391 kts | 95° |
| 2026-05-05 02:28 | 50.67915 | -2.44235 | 26666 ft | 405 kts | 96° |
| 2026-05-05 02:28 | 50.67724 | -2.39793 | 26376 ft | 407 kts | 96° |
| 2026-05-05 02:28 | 50.67532 | -2.35339 | 26014 ft | 406 kts | 96° |
| 2026-05-05 02:28 | 50.67342 | -2.30916 | 25721 ft | 404 kts | 96° |
| 2026-05-05 02:29 | 50.67152 | -2.26505 | 25448 ft | 402 kts | 96° |
| 2026-05-05 02:29 | 50.66960 | -2.22105 | 25172 ft | 400 kts | 96° |
| 2026-05-05 02:29 | 50.66771 | -2.17744 | 24900 ft | 399 kts | 96° |
| 2026-05-05 02:29 | 50.66579 | -2.13395 | 24629 ft | 397 kts | 96° |
| 2026-05-05 02:30 | 50.66385 | -2.09058 | 24360 ft | 395 kts | 96° |
| 2026-05-05 02:30 | 50.66193 | -2.04764 | 24102 ft | 393 kts | 96° |
| 2026-05-05 02:30 | 50.66117 | -2.00471 | 23825 ft | 392 kts | 91° |
| 2026-05-05 02:30 | 50.66161 | -1.96169 | 23576 ft | 390 kts | 90° |
| 2026-05-05 02:31 | 50.66218 | -1.91892 | 23329 ft | 389 kts | 90° |
| 2026-05-05 02:31 | 50.66272 | -1.87631 | 23079 ft | 388 kts | 90° |
| 2026-05-05 02:31 | 50.66323 | -1.83390 | 22829 ft | 387 kts | 90° |
| 2026-05-05 02:31 | 50.66372 | -1.79160 | 22578 ft | 385 kts | 90° |
| 2026-05-05 02:32 | 50.66417 | -1.74994 | 22332 ft | 384 kts | 90° |
| 2026-05-05 02:32 | 50.66461 | -1.70790 | 22082 ft | 383 kts | 90° |
| 2026-05-05 02:32 | 50.66504 | -1.66597 | 21831 ft | 382 kts | 90° |
| 2026-05-05 02:32 | 50.66545 | -1.62419 | 21580 ft | 381 kts | 90° |
| 2026-05-05 02:33 | 50.66590 | -1.58286 | 21307 ft | 373 kts | 90° |
| 2026-05-05 02:33 | 50.66938 | -1.54271 | 20911 ft | 369 kts | 75° |
| 2026-05-05 02:33 | 50.67895 | -1.50506 | 20524 ft | 374 kts | 66° |
| 2026-05-05 02:33 | 50.69045 | -1.46807 | 20097 ft | 377 kts | 65° |
| 2026-05-05 02:34 | 50.70208 | -1.43113 | 19695 ft | 376 kts | 65° |
| 2026-05-05 02:34 | 50.71364 | -1.39416 | 19283 ft | 374 kts | 65° |
| 2026-05-05 02:34 | 50.72502 | -1.35747 | 18866 ft | 372 kts | 65° |
| 2026-05-05 02:34 | 50.73632 | -1.32088 | 18454 ft | 370 kts | 65° |
| 2026-05-05 02:35 | 50.74754 | -1.28445 | 18046 ft | 368 kts | 65° |
| 2026-05-05 02:35 | 50.75977 | -1.24916 | 17634 ft | 366 kts | 56° |
| 2026-05-05 02:35 | 50.77734 | -1.22041 | 17254 ft | 365 kts | 37° |
| 2026-05-05 02:35 | 50.79823 | -1.19786 | 16847 ft | 363 kts | 33° |
| 2026-05-05 02:36 | 50.81950 | -1.17634 | 16467 ft | 361 kts | 33° |
| 2026-05-05 02:36 | 50.84056 | -1.15493 | 16068 ft | 359 kts | 33° |
| 2026-05-05 02:36 | 50.86141 | -1.13358 | 15683 ft | 356 kts | 33° |
| 2026-05-05 02:36 | 50.88214 | -1.11227 | 15289 ft | 354 kts | 33° |
| 2026-05-05 02:37 | 50.90265 | -1.09109 | 14902 ft | 352 kts | 34° |
| 2026-05-05 02:37 | 50.92302 | -1.07002 | 14520 ft | 349 kts | 34° |
| 2026-05-05 02:37 | 50.94337 | -1.04893 | 14126 ft | 347 kts | 34° |
| 2026-05-05 02:37 | 50.96347 | -1.02806 | 13758 ft | 345 kts | 34° |
| 2026-05-05 02:38 | 50.98350 | -1.00726 | 13373 ft | 343 kts | 33° |
| 2026-05-05 02:38 | 51.00297 | -0.98576 | 12994 ft | 341 kts | 40° |
| 2026-05-05 02:38 | 51.01979 | -0.95949 | 12668 ft | 338 kts | 48° |
| 2026-05-05 02:38 | 51.03540 | -0.93167 | 12363 ft | 336 kts | 49° |
| 2026-05-05 02:39 | 51.05086 | -0.90398 | 12041 ft | 334 kts | 49° |
| 2026-05-05 02:39 | 51.06625 | -0.87646 | 11727 ft | 332 kts | 49° |
| 2026-05-05 02:39 | 51.08133 | -0.84951 | 11523 ft | 320 kts | 49° |
| 2026-05-05 02:39 | 51.09565 | -0.82392 | 11291 ft | 308 kts | 49° |
| 2026-05-05 02:40 | 51.10968 | -0.79885 | 11036 ft | 298 kts | 48° |
| 2026-05-05 02:40 | 51.12317 | -0.77469 | 10786 ft | 292 kts | 48° |
| 2026-05-05 02:40 | 51.13617 | -0.75140 | 10541 ft | 291 kts | 48° |
| 2026-05-05 02:40 | 51.14877 | -0.72883 | 10274 ft | 289 kts | 48° |
| 2026-05-05 02:41 | 51.16226 | -0.70468 | 9909 ft | 288 kts | 48° |
| 2026-05-05 02:41 | 51.17557 | -0.68081 | 9519 ft | 287 kts | 48° |
| 2026-05-05 02:41 | 51.18862 | -0.65747 | 9233 ft | 286 kts | 48° |
| 2026-05-05 02:41 | 51.20138 | -0.63451 | 8981 ft | 285 kts | 48° |
| 2026-05-05 02:42 | 51.21440 | -0.61105 | 8715 ft | 284 kts | 48° |
| 2026-05-05 02:42 | 51.22720 | -0.58797 | 8537 ft | 273 kts | 48° |
| 2026-05-05 02:42 | 51.23952 | -0.56572 | 8345 ft | 262 kts | 48° |
| 2026-05-05 02:42 | 51.25013 | -0.54658 | 8106 ft | 255 kts | 48° |
| 2026-05-05 02:43 | 51.26172 | -0.52565 | 7855 ft | 249 kts | 48° |
| 2026-05-05 02:43 | 51.27193 | -0.50721 | 7629 ft | 245 kts | 47° |
| 2026-05-05 02:43 | 51.28317 | -0.48688 | 7382 ft | 243 kts | 47° |
| 2026-05-05 02:43 | 51.29447 | -0.46647 | 7130 ft | 242 kts | 47° |
| 2026-05-05 02:44 | 51.30577 | -0.44662 | 6988 ft | 241 kts | 43° |
| 2026-05-05 02:44 | 51.31995 | -0.43236 | 6976 ft | 239 kts | 16° |
| 2026-05-05 02:44 | 51.33609 | -0.43144 | 6984 ft | 237 kts | 346° |
| 2026-05-05 02:44 | 51.35062 | -0.44404 | 6983 ft | 238 kts | 316° |
| 2026-05-05 02:45 | 51.35909 | -0.46621 | 6987 ft | 241 kts | 287° |
| 2026-05-05 02:45 | 51.35995 | -0.49324 | 6985 ft | 243 kts | 264° |
| 2026-05-05 02:45 | 51.35744 | -0.52005 | 6982 ft | 245 kts | 262° |
| 2026-05-05 02:45 | 51.35478 | -0.54649 | 6986 ft | 245 kts | 262° |
| 2026-05-05 02:46 | 51.35219 | -0.57336 | 6981 ft | 245 kts | 263° |
| 2026-05-05 02:46 | 51.34968 | -0.60015 | 6729 ft | 243 kts | 263° |
| 2026-05-05 02:46 | 51.34745 | -0.62442 | 6349 ft | 245 kts | 263° |
| 2026-05-05 02:46 | 51.34644 | -0.65136 | 5999 ft | 241 kts | 277° |
| 2026-05-05 02:47 | 51.35019 | -0.67633 | 5619 ft | 240 kts | 290° |
| 2026-05-05 02:47 | 51.35565 | -0.70153 | 5221 ft | 240 kts | 291° |
| 2026-05-05 02:47 | 51.36127 | -0.72670 | 4848 ft | 240 kts | 293° |
| 2026-05-05 02:47 | 51.36996 | -0.74860 | 4604 ft | 229 kts | 317° |
| 2026-05-05 02:48 | 51.38285 | -0.76129 | 4441 ft | 216 kts | 339° |
| 2026-05-05 02:48 | 51.39664 | -0.76965 | 4255 ft | 208 kts | 341° |
| 2026-05-05 02:48 | 51.40993 | -0.77731 | 4139 ft | 196 kts | 342° |
| 2026-05-05 02:48 | 51.42218 | -0.78182 | 3975 ft | 186 kts | 354° |
| 2026-05-05 02:49 | 51.43474 | -0.78127 | 3725 ft | 182 kts | 10° |
| 2026-05-05 02:49 | 51.44665 | -0.77536 | 3447 ft | 179 kts | 24° |
| 2026-05-05 02:49 | 51.45780 | -0.76677 | 3164 ft | 176 kts | 27° |
| 2026-05-05 02:49 | 51.46852 | -0.75760 | 2916 ft | 174 kts | 32° |
| 2026-05-05 02:50 | 51.47583 | -0.74261 | 2589 ft | 175 kts | 73° |
| 2026-05-05 02:50 | 51.47703 | -0.72333 | 2500 ft | 175 kts | 90° |
| 2026-05-05 02:50 | 51.47663 | -0.70374 | 2484 ft | 176 kts | 89° |
| 2026-05-05 02:50 | 51.47665 | -0.68410 | 2467 ft | 176 kts | 88° |
| 2026-05-05 02:51 | 51.47681 | -0.66499 | 2276 ft | 166 kts | 88° |
| 2026-05-05 02:51 | 51.47691 | -0.64745 | 2061 ft | 156 kts | 88° |
| 2026-05-05 02:51 | 51.47695 | -0.63065 | 1855 ft | 146 kts | 88° |
| 2026-05-05 02:51 | 51.47700 | -0.61508 | 1683 ft | 137 kts | 88° |
| 2026-05-05 02:52 | 51.47706 | -0.60002 | 1502 ft | 137 kts | 88° |
| 2026-05-05 02:52 | 51.47712 | -0.58457 | 1319 ft | 137 kts | 88° |
| 2026-05-05 02:52 | 51.47718 | -0.56951 | 1143 ft | 137 kts | 88° |
| 2026-05-05 02:52 | 51.47723 | -0.55404 | 954 ft | 136 kts | 88° |
| 2026-05-05 02:53 | 51.47729 | -0.53888 | 775 ft | 136 kts | 88° |
| 2026-05-05 02:53 | 51.47734 | -0.52370 | 594 ft | 136 kts | 88° |
| 2026-05-05 02:53 | 51.47740 | -0.50898 | 410 ft | 135 kts | 88° |
| 2026-05-05 02:53 | 51.47746 | -0.49354 | 237 ft | 135 kts | 88° |
| 2026-05-05 02:54 | 51.47759 | -0.47853 | 106 ft | 133 kts | 88° |
| 2026-05-05 02:54 | 51.47758 | -0.46509 | 99 ft | 107 kts | 90° |
| 2026-05-05 02:54 | 51.47761 | -0.45646 | 94 ft | 67 kts | 89° |
| 2026-05-05 02:54 | 51.47762 | -0.45157 | 97 ft | 23 kts | 90° |
| 2026-05-05 02:55 | 51.47740 | -0.44904 | 97 ft | 23 kts | 120° |
| 2026-05-05 02:55 | 51.47616 | -0.44784 | 96 ft | 20 kts | 187° |
| 2026-05-05 02:55 | 51.47590 | -0.44937 | 92 ft | 16 kts | 274° |
| 2026-05-05 02:55 | 51.47598 | -0.45126 | 93 ft | 18 kts | 273° |
| 2026-05-05 02:56 | 51.47597 | -0.45341 | 94 ft | 20 kts | 268° |
| 2026-05-05 02:56 | 51.47596 | -0.45464 | 92 ft | 7 kts | 269° |
| 2026-05-05 02:56 | 51.47596 | -0.45572 | 96 ft | 12 kts | 269° |
| 2026-05-05 02:56 | 51.47595 | -0.45725 | 94 ft | 16 kts | 269° |
| 2026-05-05 02:57 | 51.47594 | -0.45921 | 93 ft | 20 kts | 269° |
| 2026-05-05 02:57 | 51.47528 | -0.46089 | 93 ft | 16 kts | 201° |
| 2026-05-05 02:57 | 51.47450 | -0.46132 | 95 ft | 11 kts | 212° |
| 2026-05-05 02:57 | 51.47405 | -0.46220 | 97 ft | 5 kts | 235° |
| 2026-05-05 02:58 | 51.47395 | -0.46241 | 95 ft | 0 kts | 234° |